JAL9 KORD-RJTT
Flight info
| Callsign | JAL9 |
|---|---|
| Flight time | N/A |
| Altitude | 26000 |
| Route | PMPKN DCT NEATO DCT DLLAN DCT RONIC DCT BAE J89 DLH Q834 ALBNG/N0481F280 Q834 OTLUR Q845 KOBID Q908 TAGOT Q971 NUBEG DCT 56N120W DCT GOROV/N0490F300 DCT COHIL NCA11 YESKA DCT TED DCT NODLE R220 NULUK/N0486F320 R220 NRKEY/N0490F330 R220 NANNO/N0496F340 R220 NANAC Z22 LOSVA Y810 AKRIT Y807 POLIX |
| Aircraft | B77W/H-SDE1E2E3FGHIJ2J3J4J5M1RWXY/LB1D1 |
Departure
| Time | 2026-05-01 08:28 |
|---|---|
| Airport | Chicago O'Hare International Airport (KORD) |
Arrival
| Time | N/A |
|---|---|
| Airport | Tokyo Haneda International Airport (RJTT) |
| Time | Latitude | Longitude | Altitude | Speed | Heading |
|---|---|---|---|---|---|
| 2026-05-01 08:06 | 41.97375 | -87.89238 | 682 ft | 0 kts | 78° |
| 2026-05-01 08:17 | 41.97374 | -87.89245 | 681 ft | 2 kts | 78° |
| 2026-05-01 08:18 | 41.97371 | -87.89265 | 681 ft | 2 kts | 86° |
| 2026-05-01 08:18 | 41.97379 | -87.89303 | 681 ft | 2 kts | 125° |
| 2026-05-01 08:19 | 41.97402 | -87.89329 | 681 ft | 2 kts | 159° |
| 2026-05-01 08:19 | 41.97416 | -87.89333 | 681 ft | 1 kts | 176° |
| 2026-05-01 08:19 | 41.97422 | -87.89333 | 681 ft | 0 kts | 180° |
| 2026-05-01 08:21 | 41.97412 | -87.89334 | 681 ft | 5 kts | 180° |
| 2026-05-01 08:21 | 41.97349 | -87.89362 | 681 ft | 14 kts | 237° |
| 2026-05-01 08:21 | 41.97276 | -87.89502 | 681 ft | 22 kts | 235° |
| 2026-05-01 08:22 | 41.97202 | -87.89697 | 681 ft | 22 kts | 245° |
| 2026-05-01 08:22 | 41.97144 | -87.89879 | 681 ft | 19 kts | 258° |
| 2026-05-01 08:22 | 41.97134 | -87.90044 | 681 ft | 16 kts | 269° |
| 2026-05-01 08:22 | 41.97081 | -87.90129 | 681 ft | 12 kts | 195° |
| 2026-05-01 08:23 | 41.97042 | -87.90206 | 681 ft | 10 kts | 262° |
| 2026-05-01 08:23 | 41.97039 | -87.90342 | 681 ft | 18 kts | 270° |
| 2026-05-01 08:23 | 41.97039 | -87.90543 | 681 ft | 24 kts | 270° |
| 2026-05-01 08:23 | 41.97038 | -87.90775 | 681 ft | 23 kts | 269° |
| 2026-05-01 08:24 | 41.97039 | -87.90977 | 681 ft | 19 kts | 270° |
| 2026-05-01 08:24 | 41.97039 | -87.91148 | 681 ft | 16 kts | 270° |
| 2026-05-01 08:24 | 41.97038 | -87.91292 | 681 ft | 15 kts | 269° |
| 2026-05-01 08:24 | 41.97037 | -87.91448 | 681 ft | 18 kts | 269° |
| 2026-05-01 08:25 | 41.97039 | -87.91637 | 681 ft | 22 kts | 270° |
| 2026-05-01 08:25 | 41.97038 | -87.91840 | 681 ft | 21 kts | 270° |
| 2026-05-01 08:25 | 41.97037 | -87.92064 | 681 ft | 25 kts | 270° |
| 2026-05-01 08:25 | 41.97036 | -87.92282 | 681 ft | 21 kts | 270° |
| 2026-05-01 08:26 | 41.97036 | -87.92480 | 681 ft | 21 kts | 270° |
| 2026-05-01 08:26 | 41.97036 | -87.92691 | 681 ft | 23 kts | 270° |
| 2026-05-01 08:26 | 41.97036 | -87.92904 | 681 ft | 21 kts | 270° |
| 2026-05-01 08:26 | 41.97031 | -87.93085 | 681 ft | 17 kts | 248° |
| 2026-05-01 08:27 | 41.96934 | -87.93134 | 681 ft | 13 kts | 177° |
| 2026-05-01 08:27 | 41.96898 | -87.92999 | 681 ft | 31 kts | 91° |
| 2026-05-01 08:27 | 41.96898 | -87.92400 | 681 ft | 95 kts | 90° |
| 2026-05-01 08:27 | 41.96901 | -87.91218 | 682 ft | 154 kts | 90° |
| 2026-05-01 08:28 | 41.96897 | -87.89529 | 783 ft | 196 kts | 89° |
| 2026-05-01 08:28 | 41.96915 | -87.87712 | 1452 ft | 197 kts | 88° |
| 2026-05-01 08:28 | 41.96902 | -87.85866 | 2101 ft | 200 kts | 89° |
| 2026-05-01 08:28 | 41.96877 | -87.83918 | 2283 ft | 217 kts | 89° |
| 2026-05-01 08:29 | 41.96841 | -87.81794 | 2512 ft | 233 kts | 89° |
| 2026-05-01 08:29 | 41.96810 | -87.79529 | 2735 ft | 250 kts | 89° |
| 2026-05-01 08:29 | 41.96884 | -87.77208 | 3272 ft | 251 kts | 73° |
| 2026-05-01 08:29 | 41.97677 | -87.75118 | 3727 ft | 253 kts | 44° |
| 2026-05-01 08:30 | 41.99119 | -87.73816 | 4217 ft | 253 kts | 17° |
| 2026-05-01 08:30 | 42.00873 | -87.73537 | 4740 ft | 254 kts | 351° |
| 2026-05-01 08:30 | 42.02646 | -87.74037 | 5125 ft | 264 kts | 346° |
| 2026-05-01 08:30 | 42.04432 | -87.74635 | 5668 ft | 267 kts | 345° |
| 2026-05-01 08:31 | 42.06249 | -87.75248 | 6298 ft | 268 kts | 345° |
| 2026-05-01 08:31 | 42.08072 | -87.75864 | 6867 ft | 271 kts | 345° |
| 2026-05-01 08:31 | 42.09928 | -87.76492 | 7397 ft | 275 kts | 344° |
| 2026-05-01 08:31 | 42.11799 | -87.77124 | 7991 ft | 276 kts | 344° |
| 2026-05-01 08:32 | 42.13666 | -87.77756 | 8502 ft | 280 kts | 343° |
| 2026-05-01 08:32 | 42.15571 | -87.78402 | 9060 ft | 282 kts | 343° |
| 2026-05-01 08:32 | 42.17504 | -87.79057 | 9580 ft | 285 kts | 343° |
| 2026-05-01 08:32 | 42.19444 | -87.79716 | 10103 ft | 288 kts | 343° |
| 2026-05-01 08:33 | 42.21432 | -87.80393 | 10360 ft | 301 kts | 343° |
| 2026-05-01 08:33 | 42.23552 | -87.81115 | 10541 ft | 317 kts | 343° |
| 2026-05-01 08:33 | 42.25748 | -87.81864 | 10754 ft | 332 kts | 343° |
| 2026-05-01 08:33 | 42.28051 | -87.82650 | 10996 ft | 346 kts | 343° |
| 2026-05-01 08:34 | 42.30417 | -87.83457 | 11251 ft | 360 kts | 343° |
| 2026-05-01 08:34 | 42.32889 | -87.84300 | 11601 ft | 370 kts | 343° |
| 2026-05-01 08:34 | 42.35409 | -87.85159 | 12201 ft | 374 kts | 343° |
| 2026-05-01 08:34 | 42.37976 | -87.86034 | 12823 ft | 377 kts | 343° |
| 2026-05-01 08:35 | 42.40510 | -87.86899 | 13428 ft | 380 kts | 343° |
| 2026-05-01 08:35 | 42.43100 | -87.87783 | 14029 ft | 384 kts | 343° |
| 2026-05-01 08:35 | 42.45710 | -87.88676 | 14581 ft | 388 kts | 343° |
| 2026-05-01 08:35 | 42.48352 | -87.89579 | 15140 ft | 391 kts | 343° |
| 2026-05-01 08:36 | 42.51012 | -87.90489 | 15696 ft | 395 kts | 343° |
| 2026-05-01 08:36 | 42.53706 | -87.91412 | 16246 ft | 398 kts | 343° |
| 2026-05-01 08:36 | 42.56421 | -87.92342 | 16762 ft | 402 kts | 343° |
| 2026-05-01 08:36 | 42.59161 | -87.93283 | 17300 ft | 406 kts | 343° |
| 2026-05-01 08:37 | 42.61917 | -87.94229 | 17833 ft | 409 kts | 343° |
| 2026-05-01 08:37 | 42.64692 | -87.95183 | 18346 ft | 412 kts | 343° |
| 2026-05-01 08:37 | 42.67498 | -87.96148 | 18825 ft | 416 kts | 343° |
| 2026-05-01 08:37 | 42.70329 | -87.97124 | 19356 ft | 418 kts | 342° |
| 2026-05-01 08:38 | 42.73085 | -87.98426 | 19814 ft | 419 kts | 333° |
| 2026-05-01 08:38 | 42.75684 | -88.00266 | 20270 ft | 421 kts | 328° |
| 2026-05-01 08:38 | 42.78248 | -88.02256 | 20795 ft | 423 kts | 328° |
| 2026-05-01 08:38 | 42.80820 | -88.04261 | 21279 ft | 426 kts | 328° |
| 2026-05-01 08:39 | 42.83396 | -88.06271 | 21726 ft | 429 kts | 328° |
| 2026-05-01 08:39 | 42.86006 | -88.08308 | 22165 ft | 433 kts | 328° |
| 2026-05-01 08:39 | 42.88640 | -88.10364 | 22624 ft | 435 kts | 328° |
| 2026-05-01 08:39 | 42.91293 | -88.12437 | 23070 ft | 438 kts | 328° |
| 2026-05-01 08:40 | 42.96613 | -88.16599 | 23966 ft | 442 kts | 328° |
| 2026-05-01 08:40 | 42.99297 | -88.18702 | 24360 ft | 445 kts | 328° |
| 2026-05-01 08:40 | 43.01996 | -88.20819 | 24755 ft | 447 kts | 328° |
| 2026-05-01 08:41 | 43.04718 | -88.22956 | 25161 ft | 449 kts | 328° |
| 2026-05-01 08:41 | 43.07406 | -88.25069 | 25527 ft | 451 kts | 328° |
| 2026-05-01 08:41 | 43.10144 | -88.27222 | 25892 ft | 453 kts | 328° |
| 2026-05-01 08:41 | 43.12854 | -88.29569 | 26043 ft | 458 kts | 323° |
| 2026-05-01 08:42 | 43.15489 | -88.32140 | 26041 ft | 460 kts | 322° |
| 2026-05-01 08:42 | 43.18084 | -88.34695 | 26036 ft | 459 kts | 322° |
| 2026-05-01 08:42 | 43.20689 | -88.37262 | 26040 ft | 458 kts | 323° |
| 2026-05-01 08:42 | 43.23288 | -88.39825 | 26040 ft | 459 kts | 323° |
| 2026-05-01 08:43 | 43.25880 | -88.42382 | 26036 ft | 458 kts | 323° |
| 2026-05-01 08:43 | 43.28501 | -88.44969 | 26033 ft | 458 kts | 323° |
| 2026-05-01 08:43 | 43.31090 | -88.47528 | 26036 ft | 458 kts | 323° |
| 2026-05-01 08:43 | 43.33678 | -88.50087 | 26043 ft | 457 kts | 323° |
| 2026-05-01 08:44 | 43.36260 | -88.52643 | 26040 ft | 457 kts | 323° |
| 2026-05-01 08:44 | 43.38844 | -88.55203 | 26043 ft | 457 kts | 323° |
| 2026-05-01 08:44 | 43.41424 | -88.57763 | 26048 ft | 456 kts | 323° |
| 2026-05-01 08:44 | 43.44015 | -88.60335 | 26051 ft | 457 kts | 323° |
| 2026-05-01 08:45 | 43.46605 | -88.62910 | 26054 ft | 456 kts | 323° |
| 2026-05-01 08:45 | 43.49197 | -88.65490 | 26057 ft | 456 kts | 322° |
| 2026-05-01 08:45 | 43.51766 | -88.68049 | 26062 ft | 456 kts | 322° |
| 2026-05-01 08:45 | 43.54346 | -88.70622 | 26058 ft | 456 kts | 322° |
| 2026-05-01 08:46 | 43.56930 | -88.73201 | 26056 ft | 456 kts | 322° |
| 2026-05-01 08:46 | 43.59512 | -88.75781 | 26054 ft | 457 kts | 322° |
| 2026-05-01 08:46 | 43.62088 | -88.78359 | 26050 ft | 457 kts | 322° |
| 2026-05-01 08:46 | 43.64673 | -88.80947 | 26048 ft | 457 kts | 322° |
| 2026-05-01 08:47 | 43.67266 | -88.83546 | 26049 ft | 456 kts | 322° |
| 2026-05-01 08:47 | 43.69844 | -88.86134 | 26050 ft | 457 kts | 322° |
| 2026-05-01 08:47 | 43.72425 | -88.88727 | 26053 ft | 456 kts | 322° |
| 2026-05-01 08:47 | 43.75004 | -88.91322 | 26051 ft | 456 kts | 322° |
| 2026-05-01 08:48 | 43.77544 | -88.93880 | 26050 ft | 456 kts | 322° |
| 2026-05-01 08:48 | 43.80122 | -88.96478 | 26055 ft | 455 kts | 322° |
| 2026-05-01 08:48 | 43.82685 | -88.99064 | 26060 ft | 455 kts | 322° |
| 2026-05-01 08:48 | 43.85253 | -89.01659 | 26057 ft | 455 kts | 322° |
| 2026-05-01 08:49 | 43.87815 | -89.04250 | 26057 ft | 456 kts | 322° |
| 2026-05-01 08:49 | 43.90384 | -89.06850 | 26059 ft | 456 kts | 322° |
| 2026-05-01 08:49 | 43.92957 | -89.09459 | 26061 ft | 456 kts | 322° |
| 2026-05-01 08:49 | 43.95530 | -89.12069 | 26063 ft | 457 kts | 322° |
| 2026-05-01 08:50 | 43.98098 | -89.14677 | 26063 ft | 456 kts | 322° |
| 2026-05-01 08:50 | 44.00688 | -89.17311 | 26067 ft | 456 kts | 322° |
| 2026-05-01 08:50 | 44.03226 | -89.19895 | 26065 ft | 455 kts | 322° |
| 2026-05-01 08:50 | 44.05793 | -89.22511 | 26066 ft | 456 kts | 322° |
| 2026-05-01 08:51 | 44.08366 | -89.25136 | 26063 ft | 456 kts | 322° |
| 2026-05-01 08:51 | 44.10910 | -89.27734 | 26064 ft | 455 kts | 322° |
| 2026-05-01 08:51 | 44.13488 | -89.30370 | 26065 ft | 455 kts | 323° |
| 2026-05-01 08:51 | 44.16071 | -89.33015 | 26067 ft | 455 kts | 323° |
| 2026-05-01 08:52 | 44.18631 | -89.35638 | 26063 ft | 455 kts | 323° |
| 2026-05-01 08:52 | 44.21180 | -89.38253 | 26062 ft | 455 kts | 323° |
| 2026-05-01 08:52 | 44.23733 | -89.40874 | 26061 ft | 455 kts | 323° |
| 2026-05-01 08:52 | 44.26278 | -89.43491 | 26064 ft | 455 kts | 323° |
| 2026-05-01 08:53 | 44.28836 | -89.46124 | 26062 ft | 455 kts | 323° |
| 2026-05-01 08:53 | 44.31388 | -89.48754 | 26062 ft | 456 kts | 323° |
| 2026-05-01 08:53 | 44.33949 | -89.51397 | 26062 ft | 456 kts | 323° |
| 2026-05-01 08:53 | 44.36505 | -89.54037 | 26059 ft | 455 kts | 323° |
| 2026-05-01 08:54 | 44.39027 | -89.56644 | 26064 ft | 455 kts | 323° |
| 2026-05-01 08:54 | 44.41579 | -89.59286 | 26065 ft | 455 kts | 323° |
| 2026-05-01 08:54 | 44.44138 | -89.61938 | 26066 ft | 455 kts | 323° |
| 2026-05-01 08:54 | 44.46690 | -89.64585 | 26068 ft | 455 kts | 323° |
| 2026-05-01 08:55 | 44.49244 | -89.67239 | 26070 ft | 455 kts | 322° |
| 2026-05-01 08:55 | 44.51815 | -89.69912 | 26074 ft | 455 kts | 323° |
| 2026-05-01 08:55 | 44.54371 | -89.72572 | 26073 ft | 455 kts | 323° |
| 2026-05-01 08:55 | 44.56919 | -89.75227 | 26073 ft | 455 kts | 323° |
| 2026-05-01 08:56 | 44.59468 | -89.77887 | 26075 ft | 456 kts | 323° |
| 2026-05-01 08:56 | 44.62012 | -89.80544 | 26072 ft | 456 kts | 323° |
| 2026-05-01 08:56 | 44.64568 | -89.83217 | 26068 ft | 457 kts | 323° |
| 2026-05-01 08:56 | 44.67126 | -89.85895 | 26064 ft | 455 kts | 323° |
| 2026-05-01 08:57 | 44.69666 | -89.88556 | 26067 ft | 455 kts | 323° |
| 2026-05-01 08:57 | 44.72213 | -89.91228 | 26067 ft | 455 kts | 323° |
| 2026-05-01 08:57 | 44.74757 | -89.93900 | 26065 ft | 455 kts | 323° |
| 2026-05-01 08:57 | 44.77291 | -89.96564 | 26065 ft | 454 kts | 323° |
| 2026-05-01 08:58 | 44.79802 | -89.99208 | 26067 ft | 455 kts | 323° |
| 2026-05-01 08:58 | 44.82373 | -90.01917 | 26066 ft | 455 kts | 323° |
| 2026-05-01 08:58 | 44.84881 | -90.04563 | 26062 ft | 455 kts | 323° |
| 2026-05-01 08:58 | 44.87420 | -90.07246 | 26063 ft | 455 kts | 323° |
| 2026-05-01 08:59 | 44.89960 | -90.09931 | 26064 ft | 456 kts | 323° |
| 2026-05-01 08:59 | 44.92515 | -90.12636 | 26063 ft | 456 kts | 323° |
| 2026-05-01 08:59 | 44.95059 | -90.15333 | 26065 ft | 457 kts | 323° |
| 2026-05-01 08:59 | 44.97609 | -90.18038 | 26065 ft | 457 kts | 323° |
| 2026-05-01 09:00 | 45.00152 | -90.20740 | 26063 ft | 456 kts | 323° |
| 2026-05-01 09:00 | 45.02689 | -90.23438 | 26063 ft | 455 kts | 323° |
| 2026-05-01 09:00 | 45.05218 | -90.26130 | 26062 ft | 455 kts | 323° |
| 2026-05-01 09:00 | 45.07757 | -90.28837 | 26065 ft | 454 kts | 323° |
| 2026-05-01 09:01 | 45.10304 | -90.31554 | 26066 ft | 455 kts | 323° |
| 2026-05-01 09:01 | 45.12832 | -90.34255 | 26074 ft | 454 kts | 323° |
| 2026-05-01 09:01 | 45.15371 | -90.36971 | 26073 ft | 454 kts | 323° |
| 2026-05-01 09:01 | 45.17902 | -90.39680 | 26071 ft | 454 kts | 323° |
| 2026-05-01 09:02 | 45.20430 | -90.42391 | 26067 ft | 454 kts | 323° |
| 2026-05-01 09:02 | 45.22962 | -90.45107 | 26065 ft | 455 kts | 323° |
| 2026-05-01 09:02 | 45.25488 | -90.47823 | 26067 ft | 455 kts | 323° |
| 2026-05-01 09:02 | 45.28010 | -90.50535 | 26069 ft | 454 kts | 323° |
| 2026-05-01 09:03 | 45.30532 | -90.53251 | 26067 ft | 454 kts | 323° |
| 2026-05-01 09:03 | 45.33057 | -90.55973 | 26065 ft | 454 kts | 324° |
| 2026-05-01 09:03 | 45.35587 | -90.58704 | 26068 ft | 454 kts | 324° |
| 2026-05-01 09:03 | 45.38111 | -90.61432 | 26070 ft | 454 kts | 324° |
| 2026-05-01 09:04 | 45.40638 | -90.64166 | 26066 ft | 454 kts | 324° |
| 2026-05-01 09:04 | 45.43158 | -90.66894 | 26072 ft | 454 kts | 323° |
| 2026-05-01 09:04 | 45.45693 | -90.69644 | 26071 ft | 454 kts | 323° |
| 2026-05-01 09:04 | 45.48211 | -90.72377 | 26130 ft | 460 kts | 323° |
| 2026-05-01 09:05 | 45.50776 | -90.75164 | 26552 ft | 460 kts | 323° |
| 2026-05-01 09:05 | 45.53319 | -90.77932 | 27151 ft | 457 kts | 323° |
| 2026-05-01 09:05 | 45.55841 | -90.80681 | 27612 ft | 457 kts | 323° |
| 2026-05-01 09:05 | 45.58387 | -90.83456 | 27972 ft | 459 kts | 323° |
| 2026-05-01 09:06 | 45.63495 | -90.89037 | 28078 ft | 460 kts | 323° |
| 2026-05-01 09:06 | 45.68593 | -90.94621 | 28075 ft | 459 kts | 323° |
| 2026-05-01 09:07 | 45.73656 | -91.00180 | 28074 ft | 459 kts | 324° |
| 2026-05-01 09:07 | 45.78730 | -91.05763 | 28068 ft | 460 kts | 324° |
| 2026-05-01 09:08 | 45.83820 | -91.11376 | 28072 ft | 460 kts | 324° |
| 2026-05-01 09:08 | 45.88919 | -91.17014 | 28067 ft | 459 kts | 324° |
| 2026-05-01 09:09 | 45.93969 | -91.22610 | 28073 ft | 460 kts | 324° |
| 2026-05-01 09:09 | 45.99057 | -91.28261 | 28074 ft | 461 kts | 324° |
| 2026-05-01 09:10 | 46.04154 | -91.33937 | 28075 ft | 459 kts | 324° |
| 2026-05-01 09:10 | 46.09200 | -91.39569 | 28073 ft | 460 kts | 324° |
| 2026-05-01 09:11 | 46.14323 | -91.45301 | 28080 ft | 460 kts | 324° |
| 2026-05-01 09:11 | 46.19373 | -91.50964 | 28076 ft | 460 kts | 324° |
| 2026-05-01 09:12 | 46.24455 | -91.56677 | 28078 ft | 460 kts | 324° |
| 2026-05-01 09:12 | 46.29499 | -91.62362 | 28079 ft | 460 kts | 324° |
| 2026-05-01 09:13 | 46.34563 | -91.68083 | 28079 ft | 460 kts | 324° |
| 2026-05-01 09:13 | 46.39648 | -91.73840 | 28078 ft | 461 kts | 324° |
| 2026-05-01 09:14 | 46.44718 | -91.79595 | 28081 ft | 461 kts | 324° |
| 2026-05-01 09:14 | 46.49752 | -91.85323 | 28080 ft | 460 kts | 324° |
| 2026-05-01 09:15 | 46.54808 | -91.91090 | 28083 ft | 460 kts | 324° |
| 2026-05-01 09:15 | 46.59830 | -91.96833 | 28093 ft | 460 kts | 324° |
| 2026-05-01 09:16 | 46.64878 | -92.02619 | 28096 ft | 460 kts | 324° |
| 2026-05-01 09:17 | 46.72443 | -92.11316 | 28100 ft | 463 kts | 324° |
| 2026-05-01 09:17 | 46.80011 | -92.20137 | 28087 ft | 464 kts | 320° |
| 2026-05-01 09:18 | 46.86946 | -92.30120 | 28084 ft | 464 kts | 317° |
| 2026-05-01 09:19 | 46.93837 | -92.40204 | 28086 ft | 466 kts | 317° |
| 2026-05-01 09:20 | 47.00736 | -92.50344 | 28084 ft | 469 kts | 317° |
| 2026-05-01 09:21 | 47.09928 | -92.63920 | 28082 ft | 469 kts | 317° |
| 2026-05-01 09:21 | 47.16846 | -92.74184 | 28097 ft | 470 kts | 316° |
| 2026-05-01 09:22 | 47.26039 | -92.87887 | 28101 ft | 470 kts | 316° |
| 2026-05-01 09:23 | 47.32948 | -92.98232 | 28101 ft | 472 kts | 316° |
| 2026-05-01 09:24 | 47.39849 | -93.08607 | 28101 ft | 472 kts | 316° |
| 2026-05-01 09:25 | 47.49081 | -93.22552 | 28106 ft | 472 kts | 316° |
| 2026-05-01 09:26 | 47.55944 | -93.33025 | 28111 ft | 473 kts | 315° |
| 2026-05-01 09:26 | 47.62827 | -93.43600 | 28113 ft | 475 kts | 315° |
| 2026-05-01 09:27 | 47.69732 | -93.54249 | 28108 ft | 475 kts | 315° |
| 2026-05-01 09:28 | 47.74319 | -93.61346 | 28109 ft | 477 kts | 315° |
| 2026-05-01 09:28 | 47.78921 | -93.68488 | 28106 ft | 476 kts | 314° |
| 2026-05-01 09:29 | 47.85798 | -93.79192 | 28111 ft | 477 kts | 314° |
| 2026-05-01 09:30 | 47.92678 | -93.89947 | 28126 ft | 478 kts | 314° |
| 2026-05-01 09:30 | 47.99589 | -94.00794 | 28131 ft | 478 kts | 314° |
| 2026-05-01 09:31 | 48.04153 | -94.07983 | 28132 ft | 479 kts | 314° |
| 2026-05-01 09:32 | 48.11067 | -94.18911 | 28132 ft | 479 kts | 314° |
| 2026-05-01 09:32 | 48.17949 | -94.29834 | 28135 ft | 479 kts | 314° |
| 2026-05-01 09:33 | 48.22520 | -94.37114 | 28136 ft | 479 kts | 314° |
| 2026-05-01 09:34 | 48.29372 | -94.48064 | 28132 ft | 479 kts | 314° |
| 2026-05-01 09:34 | 48.36208 | -94.59036 | 28131 ft | 478 kts | 314° |
| 2026-05-01 09:35 | 48.43050 | -94.70064 | 28133 ft | 479 kts | 314° |
| 2026-05-01 09:36 | 48.47599 | -94.77423 | 28131 ft | 479 kts | 314° |
| 2026-05-01 09:36 | 48.52148 | -94.84802 | 28133 ft | 479 kts | 314° |
| 2026-05-01 09:37 | 48.56695 | -94.92198 | 28133 ft | 479 kts | 314° |
| 2026-05-01 09:37 | 48.63499 | -95.03305 | 28136 ft | 479 kts | 314° |
| 2026-05-01 09:38 | 48.70262 | -95.14394 | 28135 ft | 478 kts | 314° |
| 2026-05-01 09:39 | 48.77020 | -95.25520 | 28137 ft | 478 kts | 314° |
| 2026-05-01 09:39 | 48.81524 | -95.32960 | 28140 ft | 478 kts | 314° |
| 2026-05-01 09:40 | 48.88260 | -95.44131 | 28140 ft | 477 kts | 314° |
| 2026-05-01 09:41 | 48.92748 | -95.51599 | 28143 ft | 477 kts | 314° |
| 2026-05-01 09:41 | 48.99472 | -95.62830 | 28146 ft | 476 kts | 315° |
| 2026-05-01 09:42 | 49.03906 | -95.70373 | 28145 ft | 477 kts | 313° |
| 2026-05-01 09:43 | 49.12750 | -95.85581 | 28148 ft | 477 kts | 313° |
| 2026-05-01 09:43 | 49.17149 | -95.93175 | 28148 ft | 477 kts | 314° |
| 2026-05-01 09:44 | 49.23768 | -96.04639 | 28138 ft | 476 kts | 314° |
| 2026-05-01 09:45 | 49.28152 | -96.12259 | 28141 ft | 476 kts | 314° |
| 2026-05-01 09:45 | 49.34724 | -96.23723 | 28142 ft | 477 kts | 314° |
| 2026-05-01 09:46 | 49.39089 | -96.31365 | 28144 ft | 477 kts | 314° |
| 2026-05-01 09:46 | 49.43464 | -96.39047 | 28144 ft | 478 kts | 314° |
| 2026-05-01 09:47 | 49.47850 | -96.46772 | 28145 ft | 477 kts | 314° |
| 2026-05-01 09:47 | 49.52225 | -96.54498 | 28147 ft | 477 kts | 313° |
| 2026-05-01 09:48 | 49.56581 | -96.62215 | 28149 ft | 478 kts | 313° |
| 2026-05-01 09:48 | 49.60973 | -96.70020 | 28153 ft | 478 kts | 313° |
| 2026-05-01 09:49 | 49.65315 | -96.77757 | 28152 ft | 479 kts | 313° |
| 2026-05-01 09:49 | 49.69680 | -96.85560 | 28157 ft | 479 kts | 313° |
| 2026-05-01 09:50 | 49.74053 | -96.93401 | 28155 ft | 479 kts | 313° |
| 2026-05-01 09:50 | 49.78391 | -97.01201 | 28156 ft | 479 kts | 313° |
| 2026-05-01 09:51 | 49.82753 | -97.09068 | 28149 ft | 480 kts | 312° |
| 2026-05-01 09:51 | 49.87092 | -97.16918 | 28147 ft | 480 kts | 313° |
| 2026-05-01 09:52 | 49.91254 | -97.25037 | 28143 ft | 482 kts | 304° |
| 2026-05-01 09:52 | 49.94576 | -97.34148 | 28147 ft | 484 kts | 301° |
| 2026-05-01 09:53 | 49.97831 | -97.43332 | 28146 ft | 484 kts | 301° |
| 2026-05-01 09:53 | 50.01071 | -97.52519 | 28144 ft | 484 kts | 302° |
| 2026-05-01 09:54 | 50.04296 | -97.61703 | 28145 ft | 483 kts | 302° |
| 2026-05-01 09:54 | 50.07527 | -97.70938 | 28133 ft | 484 kts | 301° |
| 2026-05-01 09:55 | 50.10731 | -97.80133 | 28147 ft | 485 kts | 301° |
| 2026-05-01 09:55 | 50.13952 | -97.89409 | 28141 ft | 484 kts | 301° |
| 2026-05-01 09:56 | 50.17155 | -97.98669 | 28138 ft | 484 kts | 301° |
| 2026-05-01 09:56 | 50.20351 | -98.07944 | 28151 ft | 483 kts | 301° |
| 2026-05-01 09:57 | 50.23540 | -98.17230 | 28142 ft | 484 kts | 302° |
| 2026-05-01 09:57 | 50.26714 | -98.26508 | 28145 ft | 483 kts | 302° |
| 2026-05-01 09:58 | 50.29866 | -98.35754 | 28149 ft | 482 kts | 303° |
| 2026-05-01 09:58 | 50.33009 | -98.45008 | 28143 ft | 480 kts | 303° |
| 2026-05-01 09:59 | 50.36135 | -98.54245 | 28147 ft | 479 kts | 303° |
| 2026-05-01 09:59 | 50.39245 | -98.63469 | 28139 ft | 479 kts | 304° |
| 2026-05-01 10:00 | 50.42292 | -98.72796 | 28131 ft | 483 kts | 299° |
| 2026-05-01 10:00 | 50.44750 | -98.82626 | 28140 ft | 482 kts | 297° |
| 2026-05-01 10:01 | 50.47154 | -98.92479 | 28137 ft | 481 kts | 298° |
| 2026-05-01 10:01 | 50.49541 | -99.02304 | 28137 ft | 484 kts | 298° |
| 2026-05-01 10:02 | 50.51925 | -99.12171 | 28120 ft | 479 kts | 298° |
| 2026-05-01 10:02 | 50.54291 | -99.21992 | 28122 ft | 483 kts | 299° |
| 2026-05-01 10:03 | 50.56654 | -99.31862 | 28121 ft | 480 kts | 299° |
| 2026-05-01 10:03 | 50.58999 | -99.41688 | 28118 ft | 478 kts | 299° |
| 2026-05-01 10:04 | 50.61340 | -99.51540 | 28110 ft | 479 kts | 299° |
| 2026-05-01 10:04 | 50.63665 | -99.61380 | 28112 ft | 479 kts | 300° |
| 2026-05-01 10:05 | 50.66004 | -99.71313 | 28086 ft | 480 kts | 299° |
| 2026-05-01 10:05 | 50.68309 | -99.81160 | 28066 ft | 479 kts | 300° |
| 2026-05-01 10:06 | 50.70601 | -99.90989 | 28076 ft | 477 kts | 299° |
| 2026-05-01 10:06 | 50.72889 | -100.00845 | 28067 ft | 477 kts | 300° |
| 2026-05-01 10:07 | 50.75155 | -100.10659 | 28071 ft | 474 kts | 300° |
| 2026-05-01 10:07 | 50.77435 | -100.20560 | 28079 ft | 478 kts | 300° |
| 2026-05-01 10:08 | 50.80821 | -100.35371 | 28082 ft | 478 kts | 299° |
| 2026-05-01 10:09 | 50.83071 | -100.45270 | 28080 ft | 477 kts | 299° |
| 2026-05-01 10:09 | 50.85309 | -100.55164 | 28081 ft | 478 kts | 299° |
| 2026-05-01 10:10 | 50.87532 | -100.65046 | 28073 ft | 472 kts | 298° |
| 2026-05-01 10:10 | 50.90875 | -100.79962 | 28073 ft | 478 kts | 298° |
| 2026-05-01 10:11 | 50.93081 | -100.89885 | 28073 ft | 476 kts | 298° |
| 2026-05-01 10:11 | 50.95279 | -100.99805 | 28067 ft | 475 kts | 298° |
| 2026-05-01 10:12 | 50.97091 | -101.08023 | 28070 ft | 476 kts | 298° |
| 2026-05-01 10:13 | 51.00721 | -101.24586 | 28065 ft | 476 kts | 298° |
| 2026-05-01 10:13 | 51.02891 | -101.34546 | 28055 ft | 476 kts | 297° |
| 2026-05-01 10:14 | 51.06139 | -101.49548 | 28061 ft | 478 kts | 297° |
| 2026-05-01 10:14 | 51.08284 | -101.59528 | 28060 ft | 474 kts | 297° |
| 2026-05-01 10:15 | 51.10424 | -101.69515 | 28067 ft | 478 kts | 296° |
| 2026-05-01 10:15 | 51.12573 | -101.79598 | 28070 ft | 477 kts | 296° |
| 2026-05-01 10:16 | 51.14693 | -101.89606 | 28067 ft | 478 kts | 296° |
| 2026-05-01 10:17 | 51.17864 | -102.04658 | 28067 ft | 475 kts | 296° |
| 2026-05-01 10:17 | 51.21014 | -102.19715 | 28071 ft | 477 kts | 296° |
| 2026-05-01 10:18 | 51.24155 | -102.34849 | 28086 ft | 477 kts | 296° |
| 2026-05-01 10:19 | 51.26217 | -102.44852 | 28088 ft | 476 kts | 296° |
| 2026-05-01 10:19 | 51.28468 | -102.54780 | 28081 ft | 473 kts | 299° |
| 2026-05-01 10:20 | 51.32003 | -102.69601 | 28069 ft | 477 kts | 298° |
| 2026-05-01 10:20 | 51.34325 | -102.79459 | 28062 ft | 474 kts | 298° |
| 2026-05-01 10:21 | 51.37803 | -102.94347 | 28053 ft | 473 kts | 298° |
| 2026-05-01 10:22 | 51.41252 | -103.09229 | 28045 ft | 476 kts | 297° |
| 2026-05-01 10:23 | 51.44685 | -103.24165 | 28041 ft | 474 kts | 297° |
| 2026-05-01 10:23 | 51.48087 | -103.39061 | 28038 ft | 474 kts | 297° |
| 2026-05-01 10:24 | 51.52606 | -103.59025 | 28034 ft | 472 kts | 297° |
| 2026-05-01 10:25 | 51.57098 | -103.79053 | 28031 ft | 475 kts | 296° |
| 2026-05-01 10:26 | 51.59332 | -103.89090 | 28026 ft | 473 kts | 296° |
| 2026-05-01 10:27 | 51.63742 | -104.09038 | 28024 ft | 475 kts | 296° |
| 2026-05-01 10:28 | 51.67049 | -104.24129 | 28022 ft | 472 kts | 296° |
| 2026-05-01 10:28 | 51.70316 | -104.39144 | 28019 ft | 473 kts | 296° |
| 2026-05-01 10:29 | 51.73565 | -104.54186 | 28019 ft | 472 kts | 296° |
| 2026-05-01 10:30 | 51.77878 | -104.74326 | 28025 ft | 473 kts | 295° |
| 2026-05-01 10:31 | 51.82142 | -104.94432 | 28026 ft | 472 kts | 295° |
| 2026-05-01 10:32 | 51.85317 | -105.09541 | 28026 ft | 471 kts | 295° |
| 2026-05-01 10:33 | 51.89538 | -105.29709 | 28023 ft | 474 kts | 295° |
| 2026-05-01 10:34 | 51.92671 | -105.44805 | 28020 ft | 472 kts | 295° |
| 2026-05-01 10:34 | 51.94766 | -105.54964 | 28018 ft | 472 kts | 294° |
| 2026-05-01 10:35 | 51.97881 | -105.70169 | 28016 ft | 472 kts | 294° |
| 2026-05-01 10:35 | 51.99935 | -105.80261 | 28016 ft | 472 kts | 293° |
| 2026-05-01 10:36 | 52.03011 | -105.95473 | 28015 ft | 472 kts | 293° |
| 2026-05-01 10:37 | 52.05049 | -106.05622 | 28012 ft | 471 kts | 293° |
| 2026-05-01 10:37 | 52.08093 | -106.20868 | 28010 ft | 472 kts | 293° |
| 2026-05-01 10:38 | 52.10110 | -106.31044 | 28011 ft | 470 kts | 293° |
| 2026-05-01 10:38 | 52.12109 | -106.41176 | 28024 ft | 471 kts | 293° |
| 2026-05-01 10:39 | 52.14115 | -106.51400 | 28024 ft | 470 kts | 292° |
| 2026-05-01 10:39 | 52.16090 | -106.61520 | 28026 ft | 470 kts | 292° |
| 2026-05-01 10:40 | 52.18074 | -106.71734 | 28019 ft | 472 kts | 291° |
| 2026-05-01 10:40 | 52.20301 | -106.81818 | 28016 ft | 468 kts | 295° |
| 2026-05-01 10:41 | 52.22593 | -106.91773 | 28016 ft | 468 kts | 294° |
| 2026-05-01 10:42 | 52.26002 | -107.06767 | 28015 ft | 469 kts | 294° |
| 2026-05-01 10:42 | 52.28247 | -107.16743 | 28013 ft | 468 kts | 294° |
| 2026-05-01 10:43 | 52.30500 | -107.26809 | 28007 ft | 469 kts | 294° |
| 2026-05-01 10:43 | 52.32720 | -107.36786 | 28007 ft | 468 kts | 294° |
| 2026-05-01 10:44 | 52.34930 | -107.46767 | 28009 ft | 468 kts | 294° |
| 2026-05-01 10:44 | 52.37141 | -107.56802 | 28009 ft | 468 kts | 294° |
| 2026-05-01 10:45 | 52.39343 | -107.66849 | 28010 ft | 468 kts | 292° |
| 2026-05-01 10:45 | 52.41548 | -107.76962 | 28012 ft | 468 kts | 292° |
| 2026-05-01 10:46 | 52.43734 | -107.87030 | 28015 ft | 470 kts | 292° |
| 2026-05-01 10:46 | 52.45906 | -107.97092 | 28015 ft | 468 kts | 292° |
| 2026-05-01 10:47 | 52.48080 | -108.07207 | 28012 ft | 467 kts | 292° |
| 2026-05-01 10:47 | 52.50225 | -108.17239 | 28012 ft | 467 kts | 292° |
| 2026-05-01 10:48 | 52.52367 | -108.27300 | 28011 ft | 466 kts | 292° |
| 2026-05-01 10:48 | 52.54509 | -108.37421 | 28008 ft | 467 kts | 292° |
| 2026-05-01 10:49 | 52.56629 | -108.47481 | 28006 ft | 466 kts | 292° |
| 2026-05-01 10:49 | 52.58751 | -108.57605 | 28002 ft | 466 kts | 291° |
| 2026-05-01 10:49 | 52.59802 | -108.62636 | 28000 ft | 466 kts | 291° |
| 2026-05-01 10:50 | 52.60853 | -108.67682 | 28002 ft | 465 kts | 291° |
| 2026-05-01 10:50 | 52.62952 | -108.77796 | 28003 ft | 466 kts | 291° |
| 2026-05-01 10:51 | 52.65040 | -108.87908 | 28002 ft | 466 kts | 291° |
| 2026-05-01 10:51 | 52.67127 | -108.98071 | 28001 ft | 465 kts | 290° |
| 2026-05-01 10:52 | 52.69193 | -109.08179 | 27999 ft | 466 kts | 290° |
| 2026-05-01 10:52 | 52.70226 | -109.13250 | 28000 ft | 466 kts | 290° |
| 2026-05-01 10:52 | 52.71252 | -109.18305 | 27999 ft | 465 kts | 290° |
| 2026-05-01 10:52 | 52.72291 | -109.23433 | 27998 ft | 466 kts | 290° |
| 2026-05-01 10:53 | 52.73315 | -109.28507 | 27998 ft | 465 kts | 290° |
| 2026-05-01 10:53 | 52.74336 | -109.33572 | 28000 ft | 465 kts | 290° |
| 2026-05-01 10:53 | 52.75356 | -109.38645 | 27998 ft | 465 kts | 290° |
| 2026-05-01 10:53 | 52.76369 | -109.43700 | 27998 ft | 465 kts | 290° |
| 2026-05-01 10:54 | 52.77383 | -109.48772 | 27999 ft | 465 kts | 290° |
| 2026-05-01 10:54 | 52.78395 | -109.53843 | 27996 ft | 464 kts | 290° |
| 2026-05-01 10:54 | 52.79401 | -109.58900 | 27993 ft | 465 kts | 290° |
| 2026-05-01 10:54 | 52.80408 | -109.63979 | 27991 ft | 465 kts | 290° |
| 2026-05-01 10:55 | 52.81416 | -109.69072 | 27991 ft | 465 kts | 289° |
| 2026-05-01 10:55 | 52.82423 | -109.74178 | 27990 ft | 464 kts | 289° |
| 2026-05-01 10:55 | 52.83425 | -109.79265 | 27988 ft | 466 kts | 289° |
| 2026-05-01 10:55 | 52.84424 | -109.84354 | 27988 ft | 465 kts | 289° |
| 2026-05-01 10:56 | 52.85433 | -109.89510 | 27987 ft | 464 kts | 289° |
| 2026-05-01 10:56 | 52.86427 | -109.94596 | 27989 ft | 465 kts | 289° |
| 2026-05-01 10:56 | 52.87416 | -109.99681 | 27986 ft | 464 kts | 289° |
| 2026-05-01 10:56 | 52.88401 | -110.04752 | 27982 ft | 462 kts | 288° |
| 2026-05-01 10:57 | 52.89383 | -110.09818 | 27984 ft | 462 kts | 289° |
| 2026-05-01 10:57 | 52.90366 | -110.14906 | 27981 ft | 463 kts | 288° |
| 2026-05-01 10:57 | 52.91342 | -110.19974 | 27982 ft | 464 kts | 289° |
| 2026-05-01 10:57 | 52.92335 | -110.25139 | 27985 ft | 463 kts | 288° |
| 2026-05-01 10:58 | 52.93308 | -110.30216 | 27979 ft | 463 kts | 288° |
| 2026-05-01 10:58 | 52.94277 | -110.35285 | 27984 ft | 464 kts | 288° |
| 2026-05-01 10:58 | 52.95250 | -110.40388 | 27984 ft | 464 kts | 288° |
| 2026-05-01 10:58 | 52.96231 | -110.45546 | 27984 ft | 463 kts | 288° |
| 2026-05-01 10:59 | 52.97195 | -110.50635 | 27982 ft | 464 kts | 288° |
| 2026-05-01 10:59 | 52.98157 | -110.55723 | 27984 ft | 463 kts | 288° |
| 2026-05-01 10:59 | 52.99129 | -110.60872 | 27986 ft | 463 kts | 288° |
| 2026-05-01 10:59 | 53.00090 | -110.65985 | 27986 ft | 463 kts | 287° |
| 2026-05-01 11:00 | 53.01046 | -110.71082 | 27995 ft | 462 kts | 287° |
| 2026-05-01 11:00 | 53.02001 | -110.76188 | 27993 ft | 462 kts | 287° |
| 2026-05-01 11:00 | 53.02995 | -110.81265 | 27991 ft | 462 kts | 291° |
| 2026-05-01 11:00 | 53.04402 | -110.86131 | 27993 ft | 462 kts | 300° |
| 2026-05-01 11:01 | 53.06195 | -110.90588 | 27999 ft | 464 kts | 304° |
| 2026-05-01 11:01 | 53.08077 | -110.94962 | 27990 ft | 464 kts | 304° |
| 2026-05-01 11:01 | 53.09946 | -110.99326 | 27990 ft | 464 kts | 304° |
| 2026-05-01 11:01 | 53.11828 | -111.03755 | 27989 ft | 464 kts | 303° |
| 2026-05-01 11:02 | 53.13697 | -111.08179 | 27990 ft | 464 kts | 304° |
| 2026-05-01 11:02 | 53.15553 | -111.12597 | 27987 ft | 464 kts | 303° |
| 2026-05-01 11:02 | 53.17395 | -111.16998 | 27987 ft | 463 kts | 303° |
| 2026-05-01 11:02 | 53.19238 | -111.21415 | 27981 ft | 463 kts | 303° |
| 2026-05-01 11:03 | 53.21069 | -111.25816 | 27981 ft | 463 kts | 303° |
| 2026-05-01 11:03 | 53.22920 | -111.30280 | 27982 ft | 464 kts | 303° |
| 2026-05-01 11:03 | 53.24750 | -111.34701 | 27977 ft | 463 kts | 303° |
| 2026-05-01 11:03 | 53.26580 | -111.39133 | 27975 ft | 463 kts | 303° |
| 2026-05-01 11:04 | 53.28404 | -111.43561 | 27977 ft | 463 kts | 303° |
| 2026-05-01 11:04 | 53.30232 | -111.48006 | 27976 ft | 463 kts | 303° |
| 2026-05-01 11:04 | 53.32061 | -111.52462 | 27975 ft | 462 kts | 303° |
| 2026-05-01 11:04 | 53.33877 | -111.56892 | 27973 ft | 462 kts | 303° |
| 2026-05-01 11:05 | 53.35697 | -111.61343 | 27971 ft | 462 kts | 303° |
| 2026-05-01 11:05 | 53.37517 | -111.65801 | 27971 ft | 462 kts | 302° |
| 2026-05-01 11:05 | 53.39340 | -111.70277 | 27977 ft | 463 kts | 302° |
| 2026-05-01 11:05 | 53.41163 | -111.74759 | 27973 ft | 462 kts | 302° |
| 2026-05-01 11:06 | 53.42971 | -111.79212 | 27974 ft | 463 kts | 302° |
| 2026-05-01 11:06 | 53.44780 | -111.83675 | 27973 ft | 463 kts | 302° |
| 2026-05-01 11:06 | 53.46587 | -111.88142 | 27968 ft | 463 kts | 302° |
| 2026-05-01 11:07 | 53.50229 | -111.97168 | 27967 ft | 463 kts | 302° |
| 2026-05-01 11:07 | 53.52024 | -112.01628 | 27963 ft | 462 kts | 302° |
| 2026-05-01 11:07 | 53.53824 | -112.06110 | 27965 ft | 463 kts | 302° |
| 2026-05-01 11:07 | 53.55620 | -112.10591 | 27963 ft | 464 kts | 302° |
| 2026-05-01 11:08 | 53.57423 | -112.15094 | 27966 ft | 464 kts | 302° |
| 2026-05-01 11:08 | 53.59243 | -112.19649 | 27962 ft | 463 kts | 302° |
| 2026-05-01 11:08 | 53.62830 | -112.28653 | 27963 ft | 462 kts | 302° |
| 2026-05-01 11:09 | 53.64619 | -112.33154 | 27964 ft | 463 kts | 301° |
| 2026-05-01 11:09 | 53.66408 | -112.37666 | 27962 ft | 463 kts | 301° |
| 2026-05-01 11:09 | 53.68194 | -112.42176 | 27962 ft | 463 kts | 302° |
| 2026-05-01 11:10 | 53.71781 | -112.51260 | 27963 ft | 463 kts | 301° |
| 2026-05-01 11:10 | 53.73560 | -112.55778 | 27962 ft | 462 kts | 301° |
| 2026-05-01 11:10 | 53.75338 | -112.60300 | 27960 ft | 463 kts | 301° |
| 2026-05-01 11:10 | 53.77116 | -112.64831 | 27960 ft | 463 kts | 301° |
| 2026-05-01 11:11 | 53.78903 | -112.69393 | 27963 ft | 462 kts | 301° |
| 2026-05-01 11:11 | 53.80691 | -112.73966 | 27960 ft | 462 kts | 301° |
| 2026-05-01 11:11 | 53.82464 | -112.78511 | 27961 ft | 464 kts | 301° |
| 2026-05-01 11:11 | 53.84259 | -112.83118 | 27957 ft | 462 kts | 301° |
| 2026-05-01 11:12 | 53.86028 | -112.87668 | 27961 ft | 464 kts | 301° |
| 2026-05-01 11:12 | 53.87797 | -112.92225 | 27958 ft | 461 kts | 300° |
| 2026-05-01 11:12 | 53.89565 | -112.96790 | 27960 ft | 463 kts | 300° |
| 2026-05-01 11:12 | 53.91340 | -113.01377 | 27959 ft | 463 kts | 300° |
| 2026-05-01 11:13 | 53.93104 | -113.05948 | 27960 ft | 462 kts | 300° |
| 2026-05-01 11:13 | 53.94861 | -113.10508 | 27962 ft | 462 kts | 300° |
| 2026-05-01 11:13 | 53.96625 | -113.15095 | 27959 ft | 463 kts | 300° |
| 2026-05-01 11:13 | 53.98387 | -113.19685 | 27962 ft | 463 kts | 300° |
| 2026-05-01 11:14 | 54.00151 | -113.24290 | 27963 ft | 463 kts | 300° |
| 2026-05-01 11:14 | 54.01910 | -113.28886 | 27961 ft | 463 kts | 300° |
| 2026-05-01 11:14 | 54.03666 | -113.33485 | 27964 ft | 463 kts | 300° |
| 2026-05-01 11:14 | 54.05421 | -113.38091 | 27965 ft | 462 kts | 300° |
| 2026-05-01 11:15 | 54.07172 | -113.42697 | 27964 ft | 463 kts | 300° |
| 2026-05-01 11:15 | 54.08914 | -113.47285 | 27966 ft | 463 kts | 300° |
| 2026-05-01 11:15 | 54.10674 | -113.51930 | 27966 ft | 462 kts | 300° |
| 2026-05-01 11:15 | 54.12419 | -113.56541 | 27964 ft | 462 kts | 300° |
| 2026-05-01 11:16 | 54.14150 | -113.61128 | 27962 ft | 462 kts | 300° |
| 2026-05-01 11:16 | 54.15901 | -113.65774 | 27966 ft | 464 kts | 299° |
| 2026-05-01 11:16 | 54.17665 | -113.70463 | 27968 ft | 463 kts | 299° |
| 2026-05-01 11:16 | 54.19400 | -113.75083 | 27968 ft | 462 kts | 299° |
| 2026-05-01 11:17 | 54.21128 | -113.79696 | 27968 ft | 462 kts | 299° |
| 2026-05-01 11:17 | 54.22860 | -113.84325 | 27972 ft | 462 kts | 299° |
| 2026-05-01 11:17 | 54.24594 | -113.88969 | 27970 ft | 462 kts | 299° |
| 2026-05-01 11:17 | 54.26317 | -113.93595 | 27970 ft | 464 kts | 299° |
| 2026-05-01 11:18 | 54.28044 | -113.98314 | 27966 ft | 461 kts | 297° |
| 2026-05-01 11:18 | 54.29616 | -114.03083 | 27968 ft | 461 kts | 296° |
| 2026-05-01 11:18 | 54.31167 | -114.07880 | 27967 ft | 460 kts | 296° |
| 2026-05-01 11:18 | 54.32717 | -114.12689 | 27970 ft | 461 kts | 296° |
| 2026-05-01 11:19 | 54.34265 | -114.17504 | 27969 ft | 461 kts | 296° |
| 2026-05-01 11:19 | 54.35811 | -114.22321 | 27970 ft | 460 kts | 295° |
| 2026-05-01 11:19 | 54.37349 | -114.27125 | 27971 ft | 460 kts | 296° |
| 2026-05-01 11:19 | 54.38904 | -114.31991 | 27970 ft | 460 kts | 296° |
| 2026-05-01 11:20 | 54.40444 | -114.36820 | 27968 ft | 460 kts | 296° |
| 2026-05-01 11:20 | 54.41980 | -114.41645 | 27967 ft | 462 kts | 296° |
| 2026-05-01 11:20 | 54.43515 | -114.46474 | 27964 ft | 460 kts | 295° |
| 2026-05-01 11:20 | 54.45042 | -114.51294 | 27966 ft | 461 kts | 295° |
| 2026-05-01 11:21 | 54.46572 | -114.56130 | 27963 ft | 460 kts | 295° |
| 2026-05-01 11:21 | 54.48100 | -114.60966 | 27966 ft | 460 kts | 295° |
| 2026-05-01 11:21 | 54.49625 | -114.65806 | 27968 ft | 459 kts | 295° |
| 2026-05-01 11:21 | 54.51151 | -114.70658 | 27977 ft | 457 kts | 295° |
| 2026-05-01 11:22 | 54.52668 | -114.75493 | 27980 ft | 460 kts | 295° |
| 2026-05-01 11:22 | 54.54203 | -114.80393 | 27981 ft | 459 kts | 295° |
| 2026-05-01 11:22 | 54.55699 | -114.85178 | 27981 ft | 458 kts | 295° |
| 2026-05-01 11:22 | 54.57230 | -114.90086 | 27981 ft | 458 kts | 295° |
| 2026-05-01 11:23 | 54.58735 | -114.94923 | 27982 ft | 458 kts | 295° |
| 2026-05-01 11:23 | 54.60242 | -114.99771 | 27985 ft | 458 kts | 294° |
| 2026-05-01 11:23 | 54.61747 | -115.04628 | 27984 ft | 460 kts | 294° |
| 2026-05-01 11:23 | 54.63250 | -115.09484 | 27985 ft | 459 kts | 294° |
| 2026-05-01 11:24 | 54.64756 | -115.14362 | 27988 ft | 459 kts | 294° |
| 2026-05-01 11:24 | 54.66253 | -115.19220 | 27990 ft | 459 kts | 294° |
| 2026-05-01 11:24 | 54.69274 | -115.29051 | 27991 ft | 459 kts | 294° |
| 2026-05-01 11:25 | 54.70773 | -115.33947 | 27994 ft | 459 kts | 294° |
| 2026-05-01 11:25 | 54.73745 | -115.43680 | 27997 ft | 458 kts | 294° |
| 2026-05-01 11:25 | 54.75245 | -115.48608 | 27999 ft | 458 kts | 294° |
| 2026-05-01 11:26 | 54.76722 | -115.53468 | 27996 ft | 458 kts | 294° |
| 2026-05-01 11:26 | 54.79684 | -115.63251 | 28001 ft | 458 kts | 294° |
| 2026-05-01 11:27 | 54.82648 | -115.73079 | 28011 ft | 459 kts | 293° |
| 2026-05-01 11:27 | 54.85618 | -115.82969 | 28011 ft | 459 kts | 293° |
| 2026-05-01 11:28 | 54.88559 | -115.92802 | 28011 ft | 459 kts | 293° |
| 2026-05-01 11:28 | 54.91499 | -116.02672 | 28014 ft | 460 kts | 293° |
| 2026-05-01 11:29 | 54.95893 | -116.17504 | 28011 ft | 459 kts | 293° |
| 2026-05-01 11:30 | 55.00278 | -116.32394 | 28011 ft | 457 kts | 293° |
| 2026-05-01 11:30 | 55.03163 | -116.42246 | 28004 ft | 457 kts | 293° |
| 2026-05-01 11:31 | 55.06062 | -116.52188 | 28000 ft | 457 kts | 293° |
| 2026-05-01 11:31 | 55.08923 | -116.62037 | 28001 ft | 455 kts | 293° |
| 2026-05-01 11:32 | 55.11807 | -116.72011 | 27996 ft | 454 kts | 292° |
| 2026-05-01 11:32 | 55.14674 | -116.81969 | 27999 ft | 456 kts | 292° |
| 2026-05-01 11:32 | 55.16098 | -116.86930 | 27998 ft | 456 kts | 292° |
| 2026-05-01 11:33 | 55.17511 | -116.91861 | 28000 ft | 453 kts | 292° |
| 2026-05-01 11:33 | 55.20324 | -117.01716 | 27992 ft | 452 kts | 292° |
| 2026-05-01 11:33 | 55.21724 | -117.06632 | 27991 ft | 452 kts | 292° |
| 2026-05-01 11:34 | 55.23143 | -117.11629 | 27990 ft | 453 kts | 292° |
| 2026-05-01 11:34 | 55.24538 | -117.16554 | 27990 ft | 451 kts | 292° |
| 2026-05-01 11:34 | 55.25935 | -117.21491 | 27988 ft | 451 kts | 292° |
| 2026-05-01 11:34 | 55.27326 | -117.26420 | 27986 ft | 451 kts | 292° |
| 2026-05-01 11:35 | 55.28715 | -117.31355 | 27987 ft | 452 kts | 292° |
| 2026-05-01 11:35 | 55.30104 | -117.36298 | 27990 ft | 453 kts | 292° |
| 2026-05-01 11:35 | 55.31496 | -117.41263 | 27994 ft | 452 kts | 292° |
| 2026-05-01 11:35 | 55.32885 | -117.46227 | 27995 ft | 453 kts | 292° |
| 2026-05-01 11:36 | 55.34288 | -117.51253 | 27994 ft | 452 kts | 292° |
| 2026-05-01 11:36 | 55.35669 | -117.56208 | 27986 ft | 452 kts | 292° |
| 2026-05-01 11:36 | 55.37050 | -117.61179 | 27987 ft | 451 kts | 292° |
| 2026-05-01 11:36 | 55.38418 | -117.66110 | 27990 ft | 452 kts | 291° |
| 2026-05-01 11:37 | 55.39805 | -117.71123 | 27986 ft | 452 kts | 291° |
| 2026-05-01 11:37 | 55.41178 | -117.76093 | 27997 ft | 452 kts | 291° |
| 2026-05-01 11:37 | 55.42566 | -117.81130 | 27986 ft | 450 kts | 291° |
| 2026-05-01 11:37 | 55.43932 | -117.86095 | 27996 ft | 451 kts | 291° |
| 2026-05-01 11:38 | 55.45305 | -117.91100 | 27986 ft | 453 kts | 291° |
| 2026-05-01 11:38 | 55.46670 | -117.96088 | 27980 ft | 451 kts | 291° |
| 2026-05-01 11:38 | 55.48030 | -118.01063 | 27986 ft | 450 kts | 291° |
| 2026-05-01 11:38 | 55.49385 | -118.06035 | 27986 ft | 451 kts | 291° |
| 2026-05-01 11:39 | 55.50747 | -118.11042 | 27985 ft | 452 kts | 291° |
| 2026-05-01 11:39 | 55.52106 | -118.16049 | 27994 ft | 453 kts | 291° |
| 2026-05-01 11:39 | 55.53468 | -118.21078 | 27984 ft | 452 kts | 291° |
| 2026-05-01 11:39 | 55.54833 | -118.26130 | 27979 ft | 450 kts | 291° |
| 2026-05-01 11:40 | 55.56177 | -118.31115 | 27986 ft | 452 kts | 291° |
| 2026-05-01 11:40 | 55.57525 | -118.36125 | 27981 ft | 450 kts | 291° |
| 2026-05-01 11:40 | 55.58863 | -118.41110 | 27997 ft | 450 kts | 291° |
| 2026-05-01 11:40 | 55.60203 | -118.46111 | 27982 ft | 449 kts | 291° |
| 2026-05-01 11:41 | 55.61542 | -118.51122 | 27989 ft | 450 kts | 291° |
| 2026-05-01 11:41 | 55.62879 | -118.56137 | 27987 ft | 452 kts | 291° |
| 2026-05-01 11:41 | 55.64234 | -118.61231 | 27994 ft | 451 kts | 291° |
| 2026-05-01 11:41 | 55.65557 | -118.66213 | 27986 ft | 449 kts | 290° |
| 2026-05-01 11:42 | 55.66891 | -118.71246 | 28001 ft | 449 kts | 290° |
| 2026-05-01 11:42 | 55.68218 | -118.76267 | 28000 ft | 449 kts | 290° |
| 2026-05-01 11:42 | 55.69544 | -118.81297 | 27998 ft | 449 kts | 290° |
| 2026-05-01 11:42 | 55.70882 | -118.86381 | 27998 ft | 449 kts | 290° |
| 2026-05-01 11:43 | 55.72202 | -118.91409 | 27991 ft | 450 kts | 290° |
| 2026-05-01 11:43 | 55.74837 | -119.01481 | 27999 ft | 451 kts | 290° |
| 2026-05-01 11:44 | 55.77464 | -119.11563 | 27996 ft | 449 kts | 290° |
| 2026-05-01 11:44 | 55.78779 | -119.16631 | 27989 ft | 452 kts | 291° |
| 2026-05-01 11:44 | 55.80092 | -119.21700 | 27991 ft | 451 kts | 291° |
| 2026-05-01 11:44 | 55.81402 | -119.26769 | 28007 ft | 450 kts | 291° |
| 2026-05-01 11:45 | 55.82707 | -119.31827 | 27984 ft | 451 kts | 291° |
| 2026-05-01 11:45 | 55.84018 | -119.36927 | 27992 ft | 453 kts | 291° |
| 2026-05-01 11:45 | 55.85325 | -119.42017 | 27994 ft | 452 kts | 291° |
| 2026-05-01 11:45 | 55.86624 | -119.47087 | 27993 ft | 450 kts | 291° |
| 2026-05-01 11:46 | 55.87925 | -119.52178 | 27987 ft | 452 kts | 291° |
| 2026-05-01 11:46 | 55.89246 | -119.57364 | 27999 ft | 454 kts | 291° |
| 2026-05-01 11:46 | 55.90549 | -119.62485 | 27995 ft | 454 kts | 291° |
| 2026-05-01 11:46 | 55.91851 | -119.67615 | 27997 ft | 452 kts | 290° |
| 2026-05-01 11:47 | 55.93146 | -119.72731 | 28000 ft | 452 kts | 291° |
| 2026-05-01 11:47 | 55.94441 | -119.77857 | 28000 ft | 453 kts | 291° |
| 2026-05-01 11:47 | 55.97033 | -119.88154 | 27998 ft | 454 kts | 291° |
| 2026-05-01 11:48 | 55.98324 | -119.93303 | 27996 ft | 455 kts | 291° |
| 2026-05-01 11:48 | 55.99616 | -119.98463 | 27993 ft | 456 kts | 291° |
| 2026-05-01 11:48 | 56.02615 | -120.08538 | 28011 ft | 460 kts | 298° |
| 2026-05-01 11:49 | 56.05946 | -120.18257 | 28029 ft | 460 kts | 298° |
| 2026-05-01 11:49 | 56.09254 | -120.28091 | 28035 ft | 460 kts | 298° |
| 2026-05-01 11:50 | 56.12550 | -120.38014 | 28037 ft | 460 kts | 298° |
| 2026-05-01 11:50 | 56.15811 | -120.47916 | 28036 ft | 461 kts | 299° |
| 2026-05-01 11:51 | 56.19063 | -120.57855 | 28050 ft | 462 kts | 299° |
| 2026-05-01 11:51 | 56.22311 | -120.67835 | 28049 ft | 462 kts | 298° |
| 2026-05-01 11:52 | 56.25571 | -120.77904 | 28057 ft | 464 kts | 298° |
| 2026-05-01 11:52 | 56.28811 | -120.87951 | 28062 ft | 465 kts | 299° |
| 2026-05-01 11:53 | 56.32051 | -120.98045 | 28053 ft | 466 kts | 299° |
| 2026-05-01 11:53 | 56.35312 | -121.08247 | 28053 ft | 468 kts | 299° |
| 2026-05-01 11:54 | 56.38557 | -121.18444 | 28062 ft | 469 kts | 300° |
| 2026-05-01 11:54 | 56.41810 | -121.28711 | 28057 ft | 470 kts | 300° |
| 2026-05-01 11:55 | 56.45050 | -121.38980 | 28050 ft | 470 kts | 300° |
| 2026-05-01 11:55 | 56.48289 | -121.49292 | 28062 ft | 470 kts | 300° |
| 2026-05-01 11:56 | 56.51524 | -121.59636 | 28058 ft | 471 kts | 300° |
| 2026-05-01 11:56 | 56.54749 | -121.69991 | 28059 ft | 472 kts | 299° |
| 2026-05-01 11:57 | 56.57981 | -121.80417 | 28056 ft | 471 kts | 299° |
| 2026-05-01 11:57 | 56.61182 | -121.90790 | 28050 ft | 474 kts | 299° |
| 2026-05-01 11:58 | 56.64408 | -122.01286 | 28053 ft | 476 kts | 300° |
| 2026-05-01 11:59 | 56.69226 | -122.17050 | 28056 ft | 477 kts | 300° |
| 2026-05-01 11:59 | 56.72424 | -122.27573 | 28058 ft | 476 kts | 300° |
| 2026-05-01 12:00 | 56.77221 | -122.43449 | 28056 ft | 476 kts | 300° |
| 2026-05-01 12:01 | 56.82020 | -122.59438 | 28050 ft | 477 kts | 300° |
| 2026-05-01 12:01 | 56.85194 | -122.70071 | 28062 ft | 478 kts | 299° |
| 2026-05-01 12:02 | 56.88377 | -122.80786 | 28062 ft | 478 kts | 299° |
| 2026-05-01 12:02 | 56.91558 | -122.91544 | 28057 ft | 479 kts | 299° |
| 2026-05-01 12:03 | 56.94720 | -123.02283 | 28060 ft | 480 kts | 299° |
| 2026-05-01 12:03 | 56.97884 | -123.13084 | 28068 ft | 479 kts | 299° |
| 2026-05-01 12:04 | 57.01017 | -123.23824 | 28077 ft | 479 kts | 299° |
| 2026-05-01 12:04 | 57.04151 | -123.34621 | 28075 ft | 479 kts | 299° |
| 2026-05-01 12:05 | 57.07288 | -123.45477 | 28078 ft | 479 kts | 299° |
| 2026-05-01 12:05 | 57.11976 | -123.61797 | 28083 ft | 478 kts | 299° |
| 2026-05-01 12:06 | 57.15078 | -123.72656 | 28095 ft | 476 kts | 298° |
| 2026-05-01 12:06 | 57.18168 | -123.83527 | 28101 ft | 477 kts | 298° |
| 2026-05-01 12:07 | 57.21234 | -123.94368 | 28089 ft | 477 kts | 298° |
| 2026-05-01 12:07 | 57.24308 | -124.05281 | 28090 ft | 476 kts | 298° |
| 2026-05-01 12:08 | 57.27347 | -124.16126 | 28089 ft | 474 kts | 298° |
| 2026-05-01 12:08 | 57.30356 | -124.26916 | 28087 ft | 474 kts | 298° |
| 2026-05-01 12:09 | 57.33378 | -124.37799 | 28087 ft | 474 kts | 298° |
| 2026-05-01 12:09 | 57.36385 | -124.48683 | 28086 ft | 473 kts | 298° |
| 2026-05-01 12:10 | 57.40881 | -124.65055 | 28086 ft | 474 kts | 297° |
| 2026-05-01 12:11 | 57.45334 | -124.81382 | 28083 ft | 472 kts | 297° |
| 2026-05-01 12:11 | 57.48292 | -124.92297 | 28086 ft | 471 kts | 297° |
| 2026-05-01 12:12 | 57.51235 | -125.03207 | 28085 ft | 471 kts | 297° |
| 2026-05-01 12:12 | 57.54163 | -125.14111 | 28090 ft | 471 kts | 297° |
| 2026-05-01 12:13 | 57.57070 | -125.24993 | 28089 ft | 472 kts | 297° |
| 2026-05-01 12:13 | 57.59989 | -125.35973 | 28096 ft | 472 kts | 297° |
| 2026-05-01 12:14 | 57.62903 | -125.46986 | 28105 ft | 469 kts | 297° |
| 2026-05-01 12:14 | 57.65781 | -125.57917 | 28110 ft | 471 kts | 297° |
| 2026-05-01 12:15 | 57.68667 | -125.68932 | 28120 ft | 470 kts | 296° |
| 2026-05-01 12:15 | 57.71544 | -125.79964 | 28124 ft | 470 kts | 296° |
| 2026-05-01 12:16 | 57.74401 | -125.90979 | 28125 ft | 471 kts | 296° |
| 2026-05-01 12:16 | 57.75843 | -125.96555 | 28284 ft | 479 kts | 296° |
| 2026-05-01 12:16 | 57.77294 | -126.02181 | 28928 ft | 476 kts | 296° |
| 2026-05-01 12:17 | 57.78720 | -126.07726 | 29769 ft | 470 kts | 296° |
| 2026-05-01 12:17 | 57.80144 | -126.13277 | 30091 ft | 471 kts | 296° |
| 2026-05-01 12:17 | 57.82967 | -126.24322 | 30084 ft | 467 kts | 296° |
| 2026-05-01 12:18 | 57.85766 | -126.35327 | 30094 ft | 467 kts | 296° |
| 2026-05-01 12:18 | 57.88549 | -126.46323 | 30105 ft | 467 kts | 296° |
| 2026-05-01 12:19 | 57.91346 | -126.57430 | 30103 ft | 467 kts | 296° |
| 2026-05-01 12:19 | 57.94133 | -126.68553 | 30094 ft | 466 kts | 295° |
| 2026-05-01 12:20 | 57.96888 | -126.79606 | 30077 ft | 467 kts | 295° |
| 2026-05-01 12:20 | 57.99643 | -126.90709 | 30059 ft | 465 kts | 295° |
| 2026-05-01 12:21 | 58.02377 | -127.01791 | 30032 ft | 464 kts | 295° |
| 2026-05-01 12:21 | 58.05079 | -127.12793 | 30038 ft | 464 kts | 295° |
| 2026-05-01 12:22 | 58.07795 | -127.23908 | 30055 ft | 464 kts | 295° |
| 2026-05-01 12:22 | 58.10480 | -127.34954 | 30072 ft | 463 kts | 295° |
| 2026-05-01 12:23 | 58.13165 | -127.46057 | 30086 ft | 463 kts | 295° |
| 2026-05-01 12:23 | 58.15866 | -127.57280 | 30104 ft | 464 kts | 295° |
| 2026-05-01 12:24 | 58.18552 | -127.68504 | 30110 ft | 465 kts | 294° |
| 2026-05-01 12:24 | 58.21223 | -127.79720 | 30118 ft | 463 kts | 294° |
| 2026-05-01 12:25 | 58.25178 | -127.96437 | 30119 ft | 463 kts | 294° |
| 2026-05-01 12:26 | 58.27802 | -128.07599 | 30123 ft | 463 kts | 294° |
| 2026-05-01 12:26 | 58.31727 | -128.24403 | 30107 ft | 461 kts | 294° |
| 2026-05-01 12:27 | 58.35612 | -128.41167 | 30111 ft | 462 kts | 294° |
| 2026-05-01 12:28 | 58.39496 | -128.58060 | 30105 ft | 462 kts | 294° |
| 2026-05-01 12:29 | 58.43366 | -128.75027 | 30112 ft | 461 kts | 292° |
| 2026-05-01 12:29 | 58.47194 | -128.91945 | 30117 ft | 461 kts | 292° |
| 2026-05-01 12:30 | 58.50988 | -129.08847 | 30107 ft | 461 kts | 292° |
| 2026-05-01 12:31 | 58.53514 | -129.20181 | 30101 ft | 461 kts | 292° |
| 2026-05-01 12:31 | 58.56010 | -129.31433 | 30078 ft | 461 kts | 292° |
| 2026-05-01 12:32 | 58.58514 | -129.42783 | 30081 ft | 460 kts | 292° |
| 2026-05-01 12:32 | 58.62204 | -129.59628 | 30085 ft | 460 kts | 292° |
| 2026-05-01 12:33 | 58.64691 | -129.71057 | 30106 ft | 461 kts | 291° |
| 2026-05-01 12:33 | 58.67149 | -129.82416 | 30119 ft | 461 kts | 291° |
| 2026-05-01 12:34 | 58.69608 | -129.93839 | 30123 ft | 461 kts | 291° |
| 2026-05-01 12:34 | 58.72046 | -130.05231 | 30110 ft | 460 kts | 291° |
| 2026-05-01 12:35 | 58.74482 | -130.16672 | 30110 ft | 461 kts | 291° |
| 2026-05-01 12:35 | 58.76901 | -130.28101 | 30105 ft | 460 kts | 291° |
| 2026-05-01 12:36 | 58.79298 | -130.39487 | 30097 ft | 460 kts | 291° |
| 2026-05-01 12:36 | 58.81695 | -130.50937 | 30076 ft | 460 kts | 291° |
| 2026-05-01 12:37 | 58.84088 | -130.62434 | 30085 ft | 460 kts | 291° |
| 2026-05-01 12:37 | 58.86466 | -130.73921 | 30099 ft | 458 kts | 290° |
| 2026-05-01 12:38 | 58.88837 | -130.85443 | 30105 ft | 458 kts | 290° |
| 2026-05-01 12:38 | 58.91175 | -130.96867 | 30099 ft | 458 kts | 290° |
| 2026-05-01 12:39 | 58.93516 | -131.08375 | 30099 ft | 458 kts | 290° |
| 2026-05-01 12:39 | 58.95848 | -131.19897 | 30103 ft | 458 kts | 290° |
| 2026-05-01 12:40 | 58.98158 | -131.31383 | 30101 ft | 458 kts | 290° |
| 2026-05-01 12:40 | 59.00464 | -131.42914 | 30102 ft | 458 kts | 290° |
| 2026-05-01 12:41 | 59.02771 | -131.54515 | 30102 ft | 459 kts | 290° |
| 2026-05-01 12:41 | 59.05059 | -131.66087 | 30105 ft | 458 kts | 289° |
| 2026-05-01 12:42 | 59.07353 | -131.77762 | 30129 ft | 458 kts | 289° |
| 2026-05-01 12:42 | 59.09623 | -131.89375 | 30131 ft | 458 kts | 289° |
| 2026-05-01 12:43 | 59.11889 | -132.01045 | 30128 ft | 459 kts | 289° |
| 2026-05-01 12:43 | 59.14153 | -132.12769 | 30113 ft | 459 kts | 289° |
| 2026-05-01 12:44 | 59.16390 | -132.24429 | 30095 ft | 461 kts | 289° |
| 2026-05-01 12:45 | 59.20851 | -132.47881 | 30095 ft | 461 kts | 289° |
| 2026-05-01 12:45 | 59.23072 | -132.59670 | 30099 ft | 461 kts | 289° |
| 2026-05-01 12:46 | 59.25288 | -132.71497 | 30100 ft | 463 kts | 289° |
| 2026-05-01 12:46 | 59.27499 | -132.83375 | 30077 ft | 463 kts | 289° |
| 2026-05-01 12:47 | 59.29693 | -132.95229 | 30050 ft | 463 kts | 289° |
| 2026-05-01 12:47 | 59.31706 | -133.07289 | 30048 ft | 464 kts | 287° |
| 2026-05-01 12:48 | 59.33630 | -133.19281 | 30071 ft | 463 kts | 287° |
| 2026-05-01 12:48 | 59.35552 | -133.31392 | 30095 ft | 464 kts | 287° |
| 2026-05-01 12:49 | 59.37462 | -133.43543 | 30095 ft | 465 kts | 287° |
| 2026-05-01 12:49 | 59.39357 | -133.55688 | 30094 ft | 464 kts | 287° |
| 2026-05-01 12:50 | 59.41242 | -133.67868 | 30112 ft | 465 kts | 286° |
| 2026-05-01 12:50 | 59.43127 | -133.80144 | 30130 ft | 466 kts | 286° |
| 2026-05-01 12:51 | 59.44994 | -133.92378 | 30113 ft | 467 kts | 286° |
| 2026-05-01 12:52 | 59.47764 | -134.10715 | 30112 ft | 466 kts | 286° |
| 2026-05-01 12:52 | 59.50501 | -134.29028 | 30145 ft | 467 kts | 286° |
| 2026-05-01 12:53 | 59.53234 | -134.47520 | 30090 ft | 468 kts | 286° |
| 2026-05-01 12:54 | 59.55047 | -134.59901 | 30068 ft | 470 kts | 286° |
| 2026-05-01 12:54 | 59.57753 | -134.78554 | 30062 ft | 470 kts | 285° |
| 2026-05-01 12:55 | 59.60429 | -134.97220 | 30052 ft | 470 kts | 285° |
| 2026-05-01 12:56 | 59.62198 | -135.09676 | 30066 ft | 469 kts | 285° |
| 2026-05-01 12:56 | 59.63957 | -135.22153 | 30119 ft | 470 kts | 285° |
| 2026-05-01 12:57 | 59.65693 | -135.34573 | 30115 ft | 471 kts | 285° |
| 2026-05-01 12:57 | 59.68305 | -135.53433 | 30039 ft | 472 kts | 285° |
| 2026-05-01 12:58 | 59.70023 | -135.65968 | 30085 ft | 473 kts | 284° |
| 2026-05-01 12:59 | 59.72603 | -135.84979 | 30117 ft | 473 kts | 284° |
| 2026-05-01 12:59 | 59.75136 | -136.03870 | 30044 ft | 473 kts | 284° |
| 2026-05-01 13:00 | 59.77646 | -136.22823 | 30094 ft | 473 kts | 284° |
| 2026-05-01 13:01 | 59.80129 | -136.41808 | 30085 ft | 473 kts | 284° |
| 2026-05-01 13:02 | 59.82584 | -136.60815 | 30054 ft | 473 kts | 283° |
| 2026-05-01 13:07 | 59.99748 | -138.01074 | 30080 ft | 473 kts | 282° |
| 2026-05-01 13:08 | 60.01233 | -138.13884 | 30078 ft | 472 kts | 282° |
| 2026-05-01 13:08 | 60.02697 | -138.26636 | 30081 ft | 473 kts | 282° |
| 2026-05-01 13:09 | 60.04167 | -138.39554 | 30066 ft | 473 kts | 281° |
| 2026-05-01 13:09 | 60.05615 | -138.52391 | 30062 ft | 473 kts | 281° |
| 2026-05-01 13:10 | 60.07050 | -138.65251 | 30077 ft | 473 kts | 280° |
| 2026-05-01 13:10 | 60.08481 | -138.78191 | 30059 ft | 473 kts | 280° |
| 2026-05-01 13:11 | 60.09889 | -138.91054 | 30052 ft | 473 kts | 280° |
| 2026-05-01 13:11 | 60.11288 | -139.03972 | 30050 ft | 473 kts | 280° |
| 2026-05-01 13:12 | 60.12678 | -139.16975 | 30072 ft | 472 kts | 280° |
| 2026-05-01 13:12 | 60.14040 | -139.29848 | 30095 ft | 471 kts | 280° |
| 2026-05-01 13:13 | 60.15391 | -139.42752 | 30102 ft | 471 kts | 280° |
| 2026-05-01 13:13 | 60.16721 | -139.55577 | 30092 ft | 470 kts | 280° |
| 2026-05-01 13:14 | 60.18046 | -139.68484 | 30060 ft | 470 kts | 279° |
| 2026-05-01 13:14 | 60.19367 | -139.81486 | 30059 ft | 470 kts | 279° |
| 2026-05-01 13:15 | 60.20658 | -139.94338 | 30063 ft | 469 kts | 279° |
| 2026-05-01 13:15 | 60.21936 | -140.07187 | 30080 ft | 469 kts | 279° |
| 2026-05-01 13:16 | 60.23203 | -140.20046 | 30086 ft | 467 kts | 279° |
| 2026-05-01 13:16 | 60.24455 | -140.32901 | 30091 ft | 468 kts | 279° |
| 2026-05-01 13:17 | 60.26918 | -140.58617 | 30102 ft | 467 kts | 279° |
| 2026-05-01 13:18 | 60.28739 | -140.77972 | 30077 ft | 466 kts | 278° |
| 2026-05-01 13:18 | 60.29931 | -140.90831 | 30037 ft | 466 kts | 278° |
| 2026-05-01 13:19 | 60.31112 | -141.03709 | 30039 ft | 465 kts | 278° |
| 2026-05-01 13:20 | 60.32847 | -141.22906 | 30044 ft | 465 kts | 278° |
| 2026-05-01 13:20 | 60.33990 | -141.35731 | 30068 ft | 464 kts | 278° |
| 2026-05-01 13:21 | 60.35686 | -141.55045 | 30075 ft | 465 kts | 278° |
| 2026-05-01 13:21 | 60.36799 | -141.67902 | 30072 ft | 464 kts | 277° |
| 2026-05-01 13:22 | 60.37910 | -141.80894 | 30064 ft | 465 kts | 277° |
| 2026-05-01 13:22 | 60.38998 | -141.93767 | 30058 ft | 466 kts | 277° |
| 2026-05-01 13:23 | 60.40075 | -142.06674 | 30048 ft | 464 kts | 277° |
| 2026-05-01 13:23 | 60.41136 | -142.19539 | 30053 ft | 464 kts | 277° |
| 2026-05-01 13:24 | 60.42185 | -142.32423 | 30066 ft | 464 kts | 277° |
| 2026-05-01 13:25 | 60.43738 | -142.51794 | 30097 ft | 465 kts | 277° |
| 2026-05-01 13:25 | 60.44758 | -142.64723 | 30110 ft | 465 kts | 277° |
| 2026-05-01 13:26 | 60.45773 | -142.77750 | 30114 ft | 464 kts | 276° |
| 2026-05-01 13:26 | 60.46766 | -142.90672 | 30090 ft | 463 kts | 276° |
| 2026-05-01 13:27 | 60.47746 | -143.03600 | 30076 ft | 463 kts | 276° |
| 2026-05-01 13:27 | 60.49196 | -143.23050 | 30081 ft | 464 kts | 276° |
| 2026-05-01 13:28 | 60.50618 | -143.42513 | 30062 ft | 465 kts | 276° |
| 2026-05-01 13:29 | 60.52477 | -143.68596 | 30038 ft | 466 kts | 275° |
| 2026-05-01 13:31 | 60.55165 | -144.07706 | 30096 ft | 465 kts | 275° |
| 2026-05-01 13:32 | 60.57316 | -144.40306 | 30122 ft | 464 kts | 275° |
| 2026-05-01 13:33 | 60.59394 | -144.73067 | 30112 ft | 464 kts | 274° |
| 2026-05-01 13:34 | 60.60990 | -144.99173 | 30105 ft | 466 kts | 274° |
| 2026-05-01 13:35 | 60.62161 | -145.18866 | 30084 ft | 464 kts | 274° |
| 2026-05-01 13:36 | 60.63296 | -145.38492 | 30091 ft | 464 kts | 274° |
| 2026-05-01 13:36 | 60.64401 | -145.58070 | 30131 ft | 463 kts | 274° |
| 2026-05-01 13:37 | 60.65124 | -145.71182 | 30106 ft | 464 kts | 273° |
| 2026-05-01 13:37 | 60.65829 | -145.84209 | 30076 ft | 461 kts | 273° |
| 2026-05-01 13:38 | 60.66904 | -146.03833 | 30123 ft | 464 kts | 276° |
| 2026-05-01 13:39 | 60.68392 | -146.16753 | 30110 ft | 466 kts | 280° |
| 2026-05-01 13:39 | 60.69910 | -146.29648 | 30084 ft | 467 kts | 279° |
| 2026-05-01 13:40 | 60.71373 | -146.42496 | 30103 ft | 467 kts | 279° |
| 2026-05-01 13:40 | 60.72815 | -146.55458 | 30116 ft | 466 kts | 279° |
| 2026-05-01 13:41 | 60.74230 | -146.68399 | 30118 ft | 465 kts | 278° |
| 2026-05-01 13:41 | 60.75637 | -146.81432 | 30121 ft | 465 kts | 278° |
| 2026-05-01 13:42 | 60.77014 | -146.94351 | 30124 ft | 466 kts | 278° |
| 2026-05-01 13:42 | 60.78377 | -147.07275 | 30122 ft | 466 kts | 278° |
| 2026-05-01 13:43 | 60.79727 | -147.20207 | 30111 ft | 462 kts | 278° |
| 2026-05-01 13:43 | 60.81060 | -147.33116 | 30113 ft | 464 kts | 278° |
| 2026-05-01 13:44 | 60.82381 | -147.46037 | 30110 ft | 461 kts | 278° |
| 2026-05-01 13:44 | 60.83683 | -147.58925 | 30106 ft | 464 kts | 278° |
| 2026-05-01 13:45 | 60.84985 | -147.71930 | 30090 ft | 463 kts | 277° |
| 2026-05-01 13:45 | 60.86273 | -147.84923 | 30075 ft | 461 kts | 277° |
| 2026-05-01 13:46 | 60.87543 | -147.97884 | 30121 ft | 461 kts | 277° |
| 2026-05-01 13:46 | 60.88797 | -148.10818 | 30111 ft | 464 kts | 277° |
| 2026-05-01 13:47 | 60.90039 | -148.23759 | 30087 ft | 462 kts | 277° |
| 2026-05-01 13:47 | 60.91274 | -148.36783 | 30037 ft | 464 kts | 277° |
| 2026-05-01 13:48 | 60.92500 | -148.49840 | 29956 ft | 465 kts | 276° |
| 2026-05-01 13:48 | 60.93715 | -148.62929 | 29892 ft | 465 kts | 276° |
| 2026-05-01 13:49 | 60.94920 | -148.76059 | 29878 ft | 466 kts | 275° |
| 2026-05-01 13:49 | 60.96115 | -148.89237 | 29887 ft | 468 kts | 275° |
| 2026-05-01 13:50 | 60.97302 | -149.02473 | 29863 ft | 469 kts | 275° |
| 2026-05-01 13:50 | 60.98466 | -149.15590 | 29870 ft | 467 kts | 275° |
| 2026-05-01 13:51 | 60.99637 | -149.28807 | 29816 ft | 473 kts | 277° |
| 2026-05-01 13:51 | 61.02054 | -149.41631 | 29878 ft | 490 kts | 293° |
| 2026-05-01 13:52 | 61.05456 | -149.53963 | 29895 ft | 489 kts | 294° |
| 2026-05-01 13:52 | 61.08798 | -149.66205 | 29880 ft | 492 kts | 293° |
| 2026-05-01 13:53 | 61.12151 | -149.78653 | 29879 ft | 490 kts | 292° |
| 2026-05-01 13:53 | 61.16598 | -149.97835 | 29873 ft | 481 kts | 279° |
| 2026-05-01 13:54 | 61.17729 | -150.11334 | 29862 ft | 476 kts | 272° |
| 2026-05-01 13:54 | 61.18601 | -150.24968 | 29863 ft | 475 kts | 271° |
| 2026-05-01 13:55 | 61.19445 | -150.38551 | 29856 ft | 477 kts | 271° |
| 2026-05-01 13:55 | 61.20276 | -150.52193 | 29862 ft | 477 kts | 271° |
| 2026-05-01 13:56 | 61.21095 | -150.65916 | 29850 ft | 477 kts | 270° |
| 2026-05-01 13:56 | 61.21899 | -150.79643 | 29836 ft | 479 kts | 270° |
| 2026-05-01 13:57 | 61.22561 | -150.91124 | 29837 ft | 477 kts | 271° |
| 2026-05-01 13:57 | 61.23466 | -151.07132 | 29823 ft | 479 kts | 271° |
| 2026-05-01 13:58 | 61.24229 | -151.20909 | 29823 ft | 479 kts | 270° |
| 2026-05-01 13:58 | 61.24975 | -151.34633 | 29815 ft | 481 kts | 271° |
| 2026-05-01 13:59 | 61.25711 | -151.48431 | 29799 ft | 481 kts | 270° |
| 2026-05-01 13:59 | 61.26433 | -151.62253 | 29799 ft | 482 kts | 270° |
| 2026-05-01 14:00 | 61.27145 | -151.76137 | 29785 ft | 480 kts | 270° |
| 2026-05-01 14:00 | 61.27844 | -151.90086 | 29804 ft | 482 kts | 270° |
| 2026-05-01 14:01 | 61.28345 | -152.03905 | 29823 ft | 480 kts | 265° |
| 2026-05-01 14:01 | 61.28434 | -152.17810 | 29774 ft | 479 kts | 265° |
| 2026-05-01 14:02 | 61.28497 | -152.31691 | 29715 ft | 480 kts | 265° |
| 2026-05-01 14:02 | 61.28547 | -152.45525 | 29673 ft | 482 kts | 264° |
| 2026-05-01 14:03 | 61.28582 | -152.59473 | 29649 ft | 480 kts | 265° |
| 2026-05-01 14:03 | 61.28603 | -152.73361 | 29675 ft | 481 kts | 264° |
| 2026-05-01 14:04 | 61.28609 | -152.87375 | 29680 ft | 485 kts | 264° |
| 2026-05-01 14:04 | 61.28604 | -152.99016 | 29670 ft | 485 kts | 264° |
| 2026-05-01 14:05 | 61.28580 | -153.15418 | 29626 ft | 483 kts | 264° |
| 2026-05-01 14:05 | 61.28543 | -153.29381 | 29588 ft | 484 kts | 264° |
| 2026-05-01 14:06 | 61.28492 | -153.43384 | 29559 ft | 484 kts | 264° |
| 2026-05-01 14:06 | 61.28427 | -153.57373 | 29552 ft | 485 kts | 264° |
| 2026-05-01 14:07 | 61.28347 | -153.71452 | 29581 ft | 483 kts | 263° |
| 2026-05-01 14:08 | 61.28200 | -153.92459 | 29570 ft | 484 kts | 263° |
| 2026-05-01 14:08 | 61.28083 | -154.06486 | 29490 ft | 484 kts | 263° |
| 2026-05-01 14:09 | 61.27952 | -154.20557 | 29490 ft | 485 kts | 263° |
| 2026-05-01 14:09 | 61.27806 | -154.34636 | 29469 ft | 487 kts | 263° |
| 2026-05-01 14:10 | 61.27646 | -154.48695 | 29512 ft | 485 kts | 263° |
| 2026-05-01 14:10 | 61.27472 | -154.62717 | 29540 ft | 485 kts | 263° |
| 2026-05-01 14:11 | 61.27283 | -154.76739 | 29524 ft | 484 kts | 262° |
| 2026-05-01 14:11 | 61.26971 | -154.97853 | 29503 ft | 485 kts | 262° |
| 2026-05-01 14:12 | 61.26745 | -155.11940 | 29499 ft | 488 kts | 262° |
| 2026-05-01 14:12 | 61.26503 | -155.26074 | 29499 ft | 489 kts | 262° |
| 2026-05-01 14:13 | 61.26292 | -155.37778 | 29494 ft | 488 kts | 262° |
| 2026-05-01 14:13 | 61.25978 | -155.54242 | 29494 ft | 488 kts | 263° |
| 2026-05-01 14:14 | 61.25691 | -155.68428 | 29501 ft | 489 kts | 262° |
| 2026-05-01 14:14 | 61.25391 | -155.82538 | 29493 ft | 490 kts | 262° |
| 2026-05-01 14:15 | 61.25075 | -155.96703 | 29480 ft | 490 kts | 262° |
| 2026-05-01 14:15 | 61.24974 | -156.10950 | 29468 ft | 493 kts | 266° |
| 2026-05-01 14:16 | 61.25093 | -156.25227 | 29470 ft | 493 kts | 266° |
| 2026-05-01 14:16 | 61.25181 | -156.39471 | 29478 ft | 495 kts | 265° |
| 2026-05-01 14:17 | 61.25242 | -156.53781 | 29483 ft | 494 kts | 266° |
| 2026-05-01 14:17 | 61.25282 | -156.68129 | 29484 ft | 495 kts | 265° |
| 2026-05-01 14:18 | 61.25304 | -156.82445 | 29481 ft | 495 kts | 265° |
| 2026-05-01 14:18 | 61.25308 | -156.94435 | 29477 ft | 496 kts | 265° |
| 2026-05-01 14:19 | 61.25297 | -157.11104 | 29471 ft | 495 kts | 265° |
| 2026-05-01 14:19 | 61.25270 | -157.25467 | 29460 ft | 497 kts | 265° |
| 2026-05-01 14:20 | 61.25200 | -157.46995 | 29453 ft | 498 kts | 265° |
| 2026-05-01 14:21 | 61.25135 | -157.61359 | 29451 ft | 497 kts | 265° |
| 2026-05-01 14:21 | 61.25053 | -157.75893 | 29447 ft | 495 kts | 264° |
| 2026-05-01 14:22 | 61.24903 | -157.97414 | 29411 ft | 497 kts | 264° |
| 2026-05-01 14:22 | 61.24784 | -158.11792 | 29400 ft | 498 kts | 264° |
| 2026-05-01 14:23 | 61.24649 | -158.26207 | 29406 ft | 498 kts | 264° |
| 2026-05-01 14:23 | 61.24500 | -158.40605 | 29402 ft | 499 kts | 264° |
| 2026-05-01 14:24 | 61.24335 | -158.54988 | 29383 ft | 499 kts | 265° |
| 2026-05-01 14:24 | 61.24153 | -158.69444 | 29389 ft | 498 kts | 264° |
| 2026-05-01 14:25 | 61.23957 | -158.83867 | 29407 ft | 499 kts | 264° |
| 2026-05-01 14:25 | 61.23746 | -158.98325 | 29412 ft | 499 kts | 264° |
| 2026-05-01 14:26 | 61.23401 | -159.19923 | 29407 ft | 497 kts | 264° |
| 2026-05-01 14:27 | 61.23152 | -159.34270 | 29406 ft | 496 kts | 264° |
| 2026-05-01 14:27 | 61.22890 | -159.48561 | 29401 ft | 495 kts | 264° |
| 2026-05-01 14:28 | 61.22468 | -159.69983 | 29385 ft | 495 kts | 263° |
| 2026-05-01 14:28 | 61.22168 | -159.84250 | 29375 ft | 493 kts | 263° |
| 2026-05-01 14:29 | 61.21854 | -159.98517 | 29369 ft | 493 kts | 263° |
| 2026-05-01 14:30 | 61.21182 | -160.26903 | 29371 ft | 493 kts | 263° |
| 2026-05-01 14:31 | 61.20638 | -160.48273 | 29377 ft | 493 kts | 263° |
| 2026-05-01 14:31 | 61.20257 | -160.62465 | 29360 ft | 493 kts | 263° |
| 2026-05-01 14:32 | 61.19859 | -160.76753 | 29348 ft | 493 kts | 262° |
| 2026-05-01 14:32 | 61.19450 | -160.90903 | 29363 ft | 493 kts | 262° |
| 2026-05-01 14:33 | 61.19023 | -161.05154 | 29359 ft | 494 kts | 263° |
| 2026-05-01 14:33 | 61.18579 | -161.19450 | 29351 ft | 495 kts | 263° |
| 2026-05-01 14:34 | 61.18123 | -161.33653 | 29359 ft | 496 kts | 263° |
| 2026-05-01 14:34 | 61.17649 | -161.47975 | 29355 ft | 497 kts | 263° |
| 2026-05-01 14:35 | 61.17159 | -161.62279 | 29346 ft | 497 kts | 264° |
| 2026-05-01 14:35 | 61.16655 | -161.76590 | 29348 ft | 497 kts | 263° |
| 2026-05-01 14:36 | 61.16130 | -161.91008 | 29343 ft | 497 kts | 263° |
| 2026-05-01 14:36 | 61.15597 | -162.05263 | 29348 ft | 497 kts | 263° |
| 2026-05-01 14:37 | 61.15042 | -162.19664 | 29348 ft | 501 kts | 264° |
| 2026-05-01 14:37 | 61.14471 | -162.34094 | 29345 ft | 506 kts | 264° |
| 2026-05-01 14:38 | 61.13885 | -162.48529 | 29344 ft | 507 kts | 265° |
| 2026-05-01 14:38 | 61.13274 | -162.63156 | 29351 ft | 507 kts | 266° |
| 2026-05-01 14:39 | 61.12646 | -162.77824 | 29332 ft | 505 kts | 265° |
| 2026-05-01 14:39 | 61.12012 | -162.92265 | 29332 ft | 502 kts | 265° |
| 2026-05-01 14:40 | 61.10615 | -163.06416 | 29352 ft | 503 kts | 256° |
| 2026-05-01 14:40 | 61.08757 | -163.20348 | 29350 ft | 504 kts | 256° |
| 2026-05-01 14:41 | 61.06836 | -163.34328 | 29359 ft | 504 kts | 256° |
| 2026-05-01 14:41 | 61.04890 | -163.48239 | 29341 ft | 506 kts | 256° |
| 2026-05-01 14:42 | 61.02903 | -163.62257 | 29337 ft | 505 kts | 256° |
| 2026-05-01 14:42 | 61.00895 | -163.76262 | 29333 ft | 506 kts | 255° |
| 2026-05-01 14:43 | 60.98883 | -163.90163 | 29331 ft | 505 kts | 255° |
| 2026-05-01 14:43 | 60.96859 | -164.04010 | 29330 ft | 505 kts | 255° |
| 2026-05-01 14:44 | 60.94821 | -164.17844 | 29325 ft | 505 kts | 255° |
| 2026-05-01 14:44 | 60.91727 | -164.38617 | 29315 ft | 504 kts | 255° |
| 2026-05-01 14:45 | 60.88619 | -164.59222 | 29310 ft | 503 kts | 255° |
| 2026-05-01 14:46 | 60.86521 | -164.72994 | 29307 ft | 504 kts | 255° |
| 2026-05-01 14:46 | 60.83364 | -164.93518 | 29309 ft | 503 kts | 255° |
| 2026-05-01 14:47 | 60.81239 | -165.07193 | 29318 ft | 503 kts | 254° |
| 2026-05-01 14:48 | 60.78027 | -165.27655 | 29309 ft | 502 kts | 254° |
| 2026-05-01 14:48 | 60.74787 | -165.48055 | 29301 ft | 502 kts | 254° |
| 2026-05-01 14:49 | 60.70423 | -165.75168 | 29304 ft | 502 kts | 253° |
| 2026-05-01 14:50 | 60.65998 | -166.02243 | 29313 ft | 500 kts | 253° |
| 2026-05-01 14:51 | 60.62666 | -166.22365 | 29311 ft | 499 kts | 253° |
| 2026-05-01 14:52 | 60.59304 | -166.42450 | 29309 ft | 499 kts | 253° |
| 2026-05-01 14:53 | 60.55942 | -166.62309 | 29307 ft | 499 kts | 253° |
| 2026-05-01 14:53 | 60.53661 | -166.75664 | 29302 ft | 500 kts | 252° |
| 2026-05-01 14:54 | 60.51367 | -166.89000 | 29307 ft | 497 kts | 252° |
| 2026-05-01 14:54 | 60.49078 | -167.02212 | 29305 ft | 497 kts | 252° |
| 2026-05-01 14:55 | 60.46769 | -167.15439 | 29317 ft | 497 kts | 252° |
| 2026-05-01 14:55 | 60.44436 | -167.28714 | 29316 ft | 498 kts | 252° |
| 2026-05-01 14:56 | 60.42106 | -167.41881 | 29318 ft | 497 kts | 252° |
| 2026-05-01 14:56 | 60.39756 | -167.55063 | 29312 ft | 497 kts | 252° |
| 2026-05-01 14:57 | 60.37392 | -167.68233 | 29311 ft | 498 kts | 251° |
| 2026-05-01 14:57 | 60.33834 | -167.87885 | 29316 ft | 496 kts | 251° |
| 2026-05-01 14:58 | 60.31428 | -168.01062 | 29322 ft | 496 kts | 251° |
| 2026-05-01 14:58 | 60.29069 | -168.14090 | 29327 ft | 496 kts | 251° |
| 2026-05-01 14:59 | 60.26720 | -168.27155 | 29332 ft | 496 kts | 251° |
| 2026-05-01 14:59 | 60.24347 | -168.40245 | 29333 ft | 496 kts | 251° |
| 2026-05-01 15:00 | 60.20773 | -168.59787 | 29344 ft | 495 kts | 251° |
| 2026-05-01 15:01 | 60.18385 | -168.72728 | 29347 ft | 494 kts | 250° |
| 2026-05-01 15:01 | 60.15967 | -168.85747 | 29346 ft | 494 kts | 250° |
| 2026-05-01 15:02 | 60.13553 | -168.98654 | 29340 ft | 495 kts | 250° |
| 2026-05-01 15:02 | 60.11108 | -169.11635 | 29355 ft | 493 kts | 250° |
| 2026-05-01 15:03 | 60.08673 | -169.24481 | 29342 ft | 493 kts | 250° |
| 2026-05-01 15:03 | 60.06224 | -169.37312 | 29359 ft | 493 kts | 250° |
| 2026-05-01 15:04 | 60.03767 | -169.50105 | 29368 ft | 493 kts | 250° |
| 2026-05-01 15:04 | 60.01289 | -169.62924 | 29369 ft | 492 kts | 250° |
| 2026-05-01 15:05 | 59.98807 | -169.75679 | 29368 ft | 493 kts | 249° |
| 2026-05-01 15:05 | 59.96312 | -169.88420 | 29368 ft | 492 kts | 249° |
| 2026-05-01 15:06 | 59.93809 | -170.01119 | 29380 ft | 492 kts | 249° |
| 2026-05-01 15:06 | 59.91294 | -170.13796 | 29389 ft | 492 kts | 249° |
| 2026-05-01 15:07 | 59.88749 | -170.26546 | 29385 ft | 493 kts | 249° |
| 2026-05-01 15:07 | 59.86209 | -170.39189 | 29379 ft | 493 kts | 248° |
| 2026-05-01 15:08 | 59.83635 | -170.51923 | 29386 ft | 492 kts | 248° |
| 2026-05-01 15:08 | 59.81051 | -170.64621 | 29389 ft | 491 kts | 248° |
| 2026-05-01 15:09 | 59.78472 | -170.77219 | 29394 ft | 489 kts | 247° |
| 2026-05-01 15:09 | 59.75903 | -170.89688 | 29397 ft | 488 kts | 247° |
| 2026-05-01 15:10 | 59.73317 | -171.02167 | 29393 ft | 489 kts | 247° |
| 2026-05-01 15:10 | 59.69398 | -171.20935 | 29395 ft | 490 kts | 247° |
| 2026-05-01 15:11 | 59.65468 | -171.39580 | 29401 ft | 490 kts | 247° |
| 2026-05-01 15:12 | 59.62816 | -171.52068 | 29411 ft | 489 kts | 247° |
| 2026-05-01 15:12 | 59.58846 | -171.70621 | 29413 ft | 488 kts | 246° |
| 2026-05-01 15:14 | 59.52277 | -172.01578 | 29429 ft | 488 kts | 247° |
| 2026-05-01 15:14 | 59.48483 | -172.20235 | 29436 ft | 488 kts | 247° |
| 2026-05-01 15:15 | 59.43371 | -172.45016 | 29431 ft | 489 kts | 247° |
| 2026-05-01 15:16 | 59.38210 | -172.69705 | 29434 ft | 487 kts | 246° |
| 2026-05-01 15:18 | 59.31711 | -173.00369 | 29460 ft | 486 kts | 246° |
| 2026-05-01 15:19 | 59.26454 | -173.24841 | 29471 ft | 487 kts | 246° |
| 2026-05-01 15:19 | 59.22482 | -173.43140 | 29473 ft | 488 kts | 246° |
| 2026-05-01 15:20 | 59.18474 | -173.61444 | 29482 ft | 488 kts | 246° |
| 2026-05-01 15:21 | 59.15785 | -173.73634 | 29482 ft | 487 kts | 245° |
| 2026-05-01 15:21 | 59.13089 | -173.85788 | 29489 ft | 487 kts | 245° |
| 2026-05-01 15:22 | 59.09030 | -174.03952 | 29488 ft | 487 kts | 245° |
| 2026-05-01 15:22 | 59.06325 | -174.15971 | 29486 ft | 486 kts | 245° |
| 2026-05-01 15:23 | 59.03640 | -174.28050 | 29483 ft | 486 kts | 246° |
| 2026-05-01 15:23 | 59.01019 | -174.40144 | 29495 ft | 488 kts | 246° |
| 2026-05-01 15:24 | 58.98349 | -174.52377 | 29499 ft | 487 kts | 246° |
| 2026-05-01 15:24 | 58.95696 | -174.64450 | 29506 ft | 487 kts | 246° |
| 2026-05-01 15:25 | 58.93018 | -174.76559 | 29506 ft | 486 kts | 245° |
| 2026-05-01 15:25 | 58.90351 | -174.88544 | 29509 ft | 486 kts | 245° |
| 2026-05-01 15:26 | 58.87653 | -175.00595 | 29512 ft | 486 kts | 245° |
| 2026-05-01 15:26 | 58.84957 | -175.12570 | 29526 ft | 487 kts | 245° |
| 2026-05-01 15:27 | 58.82244 | -175.24551 | 29533 ft | 486 kts | 245° |
| 2026-05-01 15:28 | 58.78156 | -175.42474 | 29532 ft | 485 kts | 245° |
| 2026-05-01 15:28 | 58.75408 | -175.54445 | 29536 ft | 485 kts | 245° |
| 2026-05-01 15:29 | 58.71285 | -175.72270 | 29559 ft | 490 kts | 244° |
| 2026-05-01 15:29 | 58.68490 | -175.84271 | 30681 ft | 489 kts | 244° |
| 2026-05-01 15:30 | 58.65715 | -175.96123 | 31540 ft | 488 kts | 244° |
| 2026-05-01 15:31 | 58.57313 | -176.31610 | 31559 ft | 484 kts | 244° |
| 2026-05-01 15:32 | 58.51659 | -176.55168 | 31563 ft | 484 kts | 243° |
| 2026-05-01 15:34 | 58.43142 | -176.90176 | 31568 ft | 483 kts | 243° |